Observation data for Hobbs on 08/12/2019      Previous  Date  Next       Current Mesonet Observations  Soil Data  Daily Summary Page  Observations in Plain Language
KHO1 120500Z 12005KT 27/14 A3005 RMK A01 T02740138  RH  043%=      5-min Rain = 0
KHO1 120501Z 13006KT 27/14 A3005 RMK A01 T02740137  RH  043%=      5-min Rain = 0
KHO1 120502Z 12005KT 27/14 A3005 RMK A01 T02740136  RH  043%=      5-min Rain = 0
KHO1 120503Z 13005KT 27/14 A3005 RMK A01 T02740135  RH  042%=      5-min Rain = 0
KHO1 120504Z 13005KT 27/14 A3005 RMK A01 T02740135  RH  042%=      5-min Rain = 0
KHO1 120505Z 12005KT 27/13 A3005 RMK A01 T02740134  RH  042%=      5-min Rain = 0
KHO1 120506Z 12004KT 27/14 A3005 RMK A01 T02740135  RH  042%=      5-min Rain = 0
KHO1 120507Z 12005KT 27/13 A3005 RMK A01 T02740134  RH  042%=      5-min Rain = 0
KHO1 120508Z 11004KT 27/13 A3005 RMK A01 T02740133  RH  042%=      5-min Rain = 0
KHO1 120509Z 11005KT 27/14 A3005 RMK A01 T02740136  RH  042%=      5-min Rain = 0
KHO1 120510Z 11005KT 27/14 A3005 RMK A01 T02740140  RH  044%=      5-min Rain = 0
KHO1 120511Z 11005KT 27/14 A3005 RMK A01 T02730141  RH  044%=      5-min Rain = 0
KHO1 120512Z 11004KT 27/14 A3005 RMK A01 T02730142  RH  045%=      5-min Rain = 0
KHO1 120513Z 11003KT 27/14 A3005 RMK A01 T02720143  RH  045%=      5-min Rain = 0
KHO1 120514Z 09003KT 27/14 A3005 RMK A01 T02710143  RH  045%=      5-min Rain = 0
KHO1 120515Z 09003KT 27/15 A3005 RMK A01 T02710145  RH  046%=      5-min Rain = 0
KHO1 120516Z 09003KT 27/15 A3005 RMK A01 T02700147  RH  047%=      5-min Rain = 0
KHO1 120517Z 08004KT 27/15 A3005 RMK A01 T02690148  RH  047%=      5-min Rain = 0
KHO1 120518Z 08004KT 27/15 A3005 RMK A01 T02680148  RH  048%=      5-min Rain = 0
KHO1 120519Z 08003KT 27/15 A3005 RMK A01 T02670149  RH  048%=      5-min Rain = 0
KHO1 120520Z 08003KT 27/15 A3005 RMK A01 T02660151  RH  049%=      5-min Rain = 0
KHO1 120521Z 08003KT 27/15 A3005 RMK A01 T02650152  RH  050%=      5-min Rain = 0
KHO1 120522Z 08003KT 26/15 A3005 RMK A01 T02640153  RH  051%=      5-min Rain = 0
KHO1 120523Z 08002KT 26/15 A3005 RMK A01 T02630153  RH  051%=      5-min Rain = 0
KHO1 120524Z 08003KT 26/15 A3005 RMK A01 T02620154  RH  051%=      5-min Rain = 0
KHO1 120525Z 08003KT 26/15 A3005 RMK A01 T02610154  RH  052%=      5-min Rain = 0
KHO1 120526Z 07003KT 26/16 A3005 RMK A01 T02600155  RH  052%=      5-min Rain = 0
KHO1 120527Z 07003KT 26/16 A3005 RMK A01 T02590155  RH  053%=      5-min Rain = 0
KHO1 120528Z 07004KT 26/16 A3005 RMK A01 T02590155  RH  053%=      5-min Rain = 0
KHO1 120529Z 07004KT 26/16 A3005 RMK A01 T02580156  RH  053%=      5-min Rain = 0
KHO1 120530Z 08004KT 26/16 A3005 RMK A01 T02580156  RH  054%=      5-min Rain = 0
KHO1 120531Z 08004KT 26/16 A3005 RMK A01 T02570157  RH  054%=      5-min Rain = 0
KHO1 120532Z 08003KT 26/16 A3005 RMK A01 T02560156  RH  054%=      5-min Rain = 0
KHO1 120533Z 08003KT 26/16 A3005 RMK A01 T02550156  RH  054%=      5-min Rain = 0
KHO1 120534Z 08003KT 26/16 A3005 RMK A01 T02550156  RH  054%=      5-min Rain = 0
KHO1 120535Z 07003KT 26/16 A3005 RMK A01 T02550156  RH  054%=      5-min Rain = 0
KHO1 120536Z 07003KT 25/16 A3005 RMK A01 T02540156  RH  055%=      5-min Rain = 0
KHO1 120537Z 07002KT 25/16 A3005 RMK A01 T02540156  RH  055%=      5-min Rain = 0
KHO1 120538Z 07003KT 25/16 A3005 RMK A01 T02540156  RH  055%=      5-min Rain = 0
KHO1 120539Z 07003KT 25/16 A3005 RMK A01 T02540156  RH  055%=      5-min Rain = 0
KHO1 120540Z 07002KT 25/16 A3005 RMK A01 T02540157  RH  055%=      5-min Rain = 0
KHO1 120541Z 07003KT 25/16 A3005 RMK A01 T02530157  RH  055%=      5-min Rain = 0
KHO1 120542Z 07003KT 25/16 A3005 RMK A01 T02530157  RH  055%=      5-min Rain = 0
KHO1 120543Z 07003KT 25/16 A3005 RMK A01 T02530156  RH  055%=      5-min Rain = 0
KHO1 120544Z 07002KT 25/16 A3005 RMK A01 T02530156  RH  055%=      5-min Rain = 0
KHO1 120545Z 06002KT 25/16 A3005 RMK A01 T02530157  RH  055%=      5-min Rain = 0
KHO1 120546Z 06002KT 25/16 A3005 RMK A01 T02520157  RH  056%=      5-min Rain = 0
KHO1 120547Z 06002KT 25/16 A3005 RMK A01 T02520158  RH  056%=      5-min Rain = 0
KHO1 120548Z 06003KT 25/16 A3005 RMK A01 T02510159  RH  056%=      5-min Rain = 0
KHO1 120549Z 06003KT 25/16 A3005 RMK A01 T02510159  RH  057%=      5-min Rain = 0
KHO1 120550Z 08003KT 25/16 A3005 RMK A01 T02510159  RH  057%=      5-min Rain = 0
KHO1 120551Z 08003KT 25/16 A3005 RMK A01 T02500159  RH  057%=      5-min Rain = 0
KHO1 120552Z 09003KT 25/16 A3006 RMK A01 T02500159  RH  057%=      5-min Rain = 0
KHO1 120553Z 09003KT 25/16 A3006 RMK A01 T02490159  RH  057%=      5-min Rain = 0
KHO1 120554Z 09003KT 25/16 A3006 RMK A01 T02490159  RH  057%=      5-min Rain = 0
KHO1 120555Z 10003KT 25/16 A3006 RMK A01 T02480158  RH  057%=      5-min Rain = 0
KHO1 120556Z 09002KT 25/16 A3006 RMK A01 T02480157  RH  057%=      5-min Rain = 0
KHO1 120557Z 09002KT 25/16 A3006 RMK A01 T02480157  RH  057%=      5-min Rain = 0
KHO1 120558Z 09002KT 25/16 A3006 RMK A01 T02480157  RH  057%=      5-min Rain = 0
KHO1 120559Z 09002KT 25/16 A3006 RMK A01 T02480157  RH  057%=      5-min Rain = 0
KHO1 120600Z 10003KT 25/16 A3006 RMK A01 T02470157  RH  057%=      5-min Rain = 0
KHO1 120601Z 10003KT 25/16 A3006 RMK A01 T02470157  RH  057%=      5-min Rain = 0
KHO1 120602Z 09001KT 25/16 A3006 RMK A01 T02470157  RH  057%=      5-min Rain = 0
KHO1 120603Z 09001KT 25/16 A3006 RMK A01 T02470156  RH  057%=      5-min Rain = 0
KHO1 120604Z 09001KT 25/16 A3006 RMK A01 T02460156  RH  057%=      5-min Rain = 0
KHO1 120605Z 09001KT 25/16 A3006 RMK A01 T02460157  RH  057%=      5-min Rain = 0
KHO1 120606Z 10001KT 25/16 A3006 RMK A01 T02460157  RH  057%=      5-min Rain = 0
KHO1 120607Z 10001KT 25/16 A3006 RMK A01 T02460156  RH  057%=      5-min Rain = 0
KHO1 120608Z 09001KT 25/16 A3006 RMK A01 T02460156  RH  057%=      5-min Rain = 0
KHO1 120609Z 09000KT 25/16 A3006 RMK A01 T02450156  RH  057%=      5-min Rain = 0
KHO1 120610Z 09001KT 25/16 A3006 RMK A01 T02450156  RH  057%=      5-min Rain = 0
KHO1 120611Z 09000KT 25/16 A3006 RMK A01 T02450156  RH  057%=      5-min Rain = 0
KHO1 120612Z 09000KT 25/16 A3007 RMK A01 T02450156  RH  058%=      5-min Rain = 0
KHO1 120613Z 09000KT 25/16 A3007 RMK A01 T02450156  RH  058%=      5-min Rain = 0
KHO1 120614Z 09000KT 25/16 A3007 RMK A01 T02450155  RH  057%=      5-min Rain = 0
KHO1 120615Z 04001KT 25/16 A3007 RMK A01 T02450157  RH  058%=      5-min Rain = 0
KHO1 120616Z 02003KT 25/16 A3007 RMK A01 T02450156  RH  058%=      5-min Rain = 0
KHO1 120617Z 01004KT 25/16 A3007 RMK A01 T02460156  RH  057%=      5-min Rain = 0
KHO1 120618Z 02004KT 25/16 A3007 RMK A01 T02460156  RH  057%=      5-min Rain = 0
KHO1 120619Z 02004KT 25/16 A3007 RMK A01 T02460155  RH  057%=      5-min Rain = 0
KHO1 120620Z 01004KT 25/16 A3007 RMK A01 T02450155  RH  057%=      5-min Rain = 0
KHO1 120621Z 36005KT 25/15 A3007 RMK A01 T02460154  RH  057%=      5-min Rain = 0
KHO1 120622Z 35006KT 25/15 A3007 RMK A01 T02460154  RH  057%=      5-min Rain = 0
KHO1 120623Z 35006KT 25/16 A3007 RMK A01 T02470155  RH  057%=      5-min Rain = 0
KHO1 120624Z 34006KT 25/16 A3007 RMK A01 T02460155  RH  057%=      5-min Rain = 0
KHO1 120625Z 34007KT 25/16 A3007 RMK A01 T02460155  RH  057%=      5-min Rain = 0
KHO1 120626Z 35006KT 25/16 A3007 RMK A01 T02450155  RH  057%=      5-min Rain = 0
KHO1 120627Z 35006KT 25/16 A3007 RMK A01 T02450155  RH  057%=      5-min Rain = 0
KHO1 120628Z 35006KT 24/16 A3007 RMK A01 T02440156  RH  058%=      5-min Rain = 0
KHO1 120629Z 34006KT 24/16 A3007 RMK A01 T02440155  RH  058%=      5-min Rain = 0
KHO1 120630Z 34006KT 24/16 A3007 RMK A01 T02430155  RH  058%=      5-min Rain = 0
KHO1 120631Z 35007KT 24/15 A3007 RMK A01 T02430154  RH  058%=      5-min Rain = 0
KHO1 120632Z 35006KT 24/15 A3007 RMK A01 T02420153  RH  057%=      5-min Rain = 0
KHO1 120633Z 35004KT 24/15 A3007 RMK A01 T02430153  RH  057%=      5-min Rain = 0
KHO1 120634Z 35004KT 24/15 A3007 RMK A01 T02430152  RH  057%=      5-min Rain = 0
KHO1 120635Z 36004KT 24/15 A3007 RMK A01 T02430152  RH  057%=      5-min Rain = 0
KHO1 120636Z 00004KT 24/15 A3007 RMK A01 T02440151  RH  056%=      5-min Rain = 0
KHO1 120637Z 02002KT 24/15 A3007 RMK A01 T02440150  RH  056%=      5-min Rain = 0
KHO1 120638Z 02003KT 24/15 A3007 RMK A01 T02440150  RH  056%=      5-min Rain = 0
KHO1 120639Z 01005KT 24/15 A3007 RMK A01 T02440150  RH  056%=      5-min Rain = 0
KHO1 120640Z 02005KT 24/15 A3007 RMK A01 T02440150  RH  056%=      5-min Rain = 0
KHO1 120641Z 01005KT 24/15 A3007 RMK A01 T02440145  RH  054%=      5-min Rain = 0
KHO1 120642Z 02001KT 25/14 A3007 RMK A01 T02460138  RH  051%=      5-min Rain = 0
KHO1 120643Z 07000KT 25/15 A3007 RMK A01 T02480146  RH  053%=      5-min Rain = 0
KHO1 120644Z 00001KT 25/15 A3007 RMK A01 T02490147  RH  053%=      5-min Rain = 0
KHO1 120645Z 01002KT 25/15 A3007 RMK A01 T02490148  RH  053%=      5-min Rain = 0
KHO1 120646Z 02003KT 25/15 A3007 RMK A01 T02490147  RH  053%=      5-min Rain = 0
KHO1 120647Z 00003KT 25/15 A3007 RMK A01 T02490148  RH  053%=      5-min Rain = 0
KHO1 120648Z 35003KT 25/15 A3007 RMK A01 T02490148  RH  053%=      5-min Rain = 0
KHO1 120649Z 34002KT 25/15 A3007 RMK A01 T02480147  RH  053%=      5-min Rain = 0
KHO1 120650Z 34002KT 25/15 A3007 RMK A01 T02480147  RH  053%=      5-min Rain = 0
KHO1 120651Z 34002KT 25/15 A3007 RMK A01 T02480148  RH  054%=      5-min Rain = 0
KHO1 120652Z 35003KT 25/15 A3007 RMK A01 T02470148  RH  054%=      5-min Rain = 0
KHO1 120653Z 34002KT 25/15 A3007 RMK A01 T02470148  RH  054%=      5-min Rain = 0
KHO1 120654Z 34002KT 25/15 A3007 RMK A01 T02470147  RH  054%=      5-min Rain = 0
KHO1 120655Z 34002KT 25/15 A3007 RMK A01 T02460147  RH  054%=      5-min Rain = 0
KHO1 120656Z 34002KT 25/15 A3007 RMK A01 T02460147  RH  054%=      5-min Rain = 0
KHO1 120657Z 34003KT 25/15 A3007 RMK A01 T02460147  RH  054%=      5-min Rain = 0
KHO1 120658Z 34002KT 25/15 A3007 RMK A01 T02460148  RH  054%=      5-min Rain = 0
KHO1 120659Z 34002KT 25/15 A3007 RMK A01 T02450147  RH  054%=      5-min Rain = 0
KHO1 120700Z 32003KT 24/15 A3007 RMK A01 T02430147  RH  055%=      5-min Rain = 0
KHO1 120701Z 32002KT 24/15 A3007 RMK A01 T02420147  RH  055%=      5-min Rain = 0
KHO1 120702Z 32002KT 24/15 A3007 RMK A01 T02420147  RH  055%=      5-min Rain = 0
KHO1 120703Z 32002KT 24/15 A3007 RMK A01 T02410148  RH  056%=      5-min Rain = 0
KHO1 120704Z 32001KT 24/15 A3007 RMK A01 T02410149  RH  056%=      5-min Rain = 0
KHO1 120705Z 32002KT 24/15 A3007 RMK A01 T02410148  RH  056%=      5-min Rain = 0
KHO1 120706Z 33003KT 24/15 A3007 RMK A01 T02410148  RH  056%=      5-min Rain = 0
KHO1 120707Z 32003KT 24/15 A3007 RMK A01 T02420148  RH  056%=      5-min Rain = 0
KHO1 120708Z 32003KT 24/15 A3007 RMK A01 T02420149  RH  056%=      5-min Rain = 0
KHO1 120709Z 32004KT 24/15 A3007 RMK A01 T02420148  RH  056%=      5-min Rain = 0
KHO1 120710Z 33004KT 24/15 A3007 RMK A01 T02420148  RH  056%=      5-min Rain = 0
KHO1 120711Z 33004KT 24/15 A3007 RMK A01 T02420149  RH  056%=      5-min Rain = 0
KHO1 120712Z 33003KT 24/15 A3007 RMK A01 T02420149  RH  056%=      5-min Rain = 0
KHO1 120713Z 33003KT 24/15 A3007 RMK A01 T02420150  RH  056%=      5-min Rain = 0
KHO1 120714Z 33003KT 24/15 A3007 RMK A01 T02420150  RH  057%=      5-min Rain = 0
KHO1 120715Z 33003KT 24/15 A3007 RMK A01 T02420151  RH  057%=      5-min Rain = 0
KHO1 120716Z 33003KT 24/15 A3007 RMK A01 T02410150  RH  057%=      5-min Rain = 0
KHO1 120717Z 33002KT 24/15 A3007 RMK A01 T02410150  RH  057%=      5-min Rain = 0
KHO1 120718Z 33002KT 24/15 A3007 RMK A01 T02410150  RH  057%=      5-min Rain = 0
KHO1 120719Z 34003KT 24/15 A3007 RMK A01 T02400149  RH  057%=      5-min Rain = 0
KHO1 120720Z 34003KT 24/15 A3007 RMK A01 T02400149  RH  057%=      5-min Rain = 0
KHO1 120721Z 34003KT 24/15 A3007 RMK A01 T02400148  RH  056%=      5-min Rain = 0
KHO1 120722Z 33003KT 24/15 A3006 RMK A01 T02400148  RH  056%=      5-min Rain = 0
KHO1 120723Z 33004KT 24/15 A3007 RMK A01 T02400148  RH  057%=      5-min Rain = 0
KHO1 120724Z 33004KT 24/15 A3007 RMK A01 T02400149  RH  057%=      5-min Rain = 0
KHO1 120725Z 33005KT 24/15 A3007 RMK A01 T02390149  RH  057%=      5-min Rain = 0
KHO1 120726Z 33004KT 24/15 A3007 RMK A01 T02390150  RH  058%=      5-min Rain = 0
KHO1 120727Z 33004KT 24/15 A3007 RMK A01 T02380150  RH  058%=      5-min Rain = 0
KHO1 120728Z 33003KT 24/15 A3007 RMK A01 T02380150  RH  058%=      5-min Rain = 0
KHO1 120729Z 33004KT 24/15 A3006 RMK A01 T02370149  RH  058%=      5-min Rain = 0
KHO1 120730Z 33003KT 24/15 A3006 RMK A01 T02370150  RH  058%=      5-min Rain = 0
KHO1 120731Z 34004KT 24/15 A3006 RMK A01 T02370151  RH  059%=      5-min Rain = 0
KHO1 120732Z 34004KT 24/15 A3006 RMK A01 T02360152  RH  059%=      5-min Rain = 0
KHO1 120733Z 34004KT 24/15 A3006 RMK A01 T02350152  RH  059%=      5-min Rain = 0
KHO1 120734Z 34004KT 24/15 A3006 RMK A01 T02350152  RH  060%=      5-min Rain = 0
KHO1 120735Z 34004KT 24/15 A3006 RMK A01 T02350152  RH  060%=      5-min Rain = 0
KHO1 120736Z 34003KT 23/15 A3006 RMK A01 T02340152  RH  060%=      5-min Rain = 0
KHO1 120737Z 33004KT 23/15 A3006 RMK A01 T02340152  RH  060%=      5-min Rain = 0
KHO1 120738Z 32003KT 23/15 A3006 RMK A01 T02340153  RH  060%=      5-min Rain = 0
KHO1 120739Z 32001KT 23/15 A3006 RMK A01 T02330153  RH  060%=      5-min Rain = 0
KHO1 120740Z 32001KT 23/15 A3006 RMK A01 T02330153  RH  061%=      5-min Rain = 0
KHO1 120741Z 32000KT 23/15 A3006 RMK A01 T02330153  RH  061%=      5-min Rain = 0
KHO1 120742Z 32000KT 23/15 A3006 RMK A01 T02330152  RH  060%=      5-min Rain = 0
KHO1 120743Z 32000KT 23/15 A3006 RMK A01 T02320152  RH  061%=      5-min Rain = 0
KHO1 120744Z 32001KT 23/15 A3006 RMK A01 T02320152  RH  061%=      5-min Rain = 0
KHO1 120745Z 33002KT 23/15 A3006 RMK A01 T02320153  RH  061%=      5-min Rain = 0
KHO1 120746Z 34002KT 23/15 A3006 RMK A01 T02320154  RH  062%=      5-min Rain = 0
KHO1 120747Z 34002KT 23/15 A3006 RMK A01 T02320154  RH  061%=      5-min Rain = 0
KHO1 120748Z 34002KT 23/15 A3006 RMK A01 T02320154  RH  062%=      5-min Rain = 0
KHO1 120749Z 34002KT 23/15 A3006 RMK A01 T02320154  RH  062%=      5-min Rain = 0
KHO1 120750Z 34002KT 23/15 A3006 RMK A01 T02320154  RH  062%=      5-min Rain = 0
KHO1 120751Z 34002KT 23/15 A3006 RMK A01 T02320154  RH  062%=      5-min Rain = 0
KHO1 120752Z 34002KT 23/15 A3006 RMK A01 T02310154  RH  062%=      5-min Rain = 0
KHO1 120753Z 33001KT 23/15 A3006 RMK A01 T02310154  RH  062%=      5-min Rain = 0
KHO1 120754Z 33000KT 23/15 A3006 RMK A01 T02310153  RH  062%=      5-min Rain = 0
KHO1 120755Z 33001KT 23/15 A3006 RMK A01 T02310153  RH  062%=      5-min Rain = 0
KHO1 120756Z 33001KT 23/15 A3006 RMK A01 T02310153  RH  061%=      5-min Rain = 0
KHO1 120757Z 33001KT 23/15 A3006 RMK A01 T02300152  RH  061%=      5-min Rain = 0
KHO1 120758Z 33000KT 23/15 A3006 RMK A01 T02300152  RH  061%=      5-min Rain = 0
KHO1 120759Z 34001KT 23/15 A3005 RMK A01 T02290153  RH  062%=      5-min Rain = 0
KHO1 120800Z 34002KT 23/15 A3006 RMK A01 T02290154  RH  063%=      5-min Rain = 0
KHO1 120801Z 34001KT 23/15 A3006 RMK A01 T02290152  RH  062%=      5-min Rain = 0
KHO1 120802Z 34001KT 23/15 A3005 RMK A01 T02290152  RH  062%=      5-min Rain = 0
KHO1 120803Z 34001KT 23/15 A3005 RMK A01 T02290153  RH  062%=      5-min Rain = 0
KHO1 120804Z 34001KT 23/15 A3005 RMK A01 T02300154  RH  062%=      5-min Rain = 0
KHO1 120805Z 34001KT 23/15 A3005 RMK A01 T02300154  RH  062%=      5-min Rain = 0
KHO1 120806Z 34001KT 23/15 A3005 RMK A01 T02310154  RH  062%=      5-min Rain = 0
KHO1 120807Z 34001KT 23/15 A3005 RMK A01 T02310154  RH  062%=      5-min Rain = 0
KHO1 120808Z 34001KT 23/15 A3005 RMK A01 T02320154  RH  062%=      5-min Rain = 0
KHO1 120809Z 34000KT 23/15 A3005 RMK A01 T02320153  RH  061%=      5-min Rain = 0
KHO1 120810Z 00000KT 23/15 A3005 RMK A01 T02320153  RH  061%=      5-min Rain = 0
KHO1 120811Z 00000KT 23/15 A3005 RMK A01 T02320153  RH  061%=      5-min Rain = 0
KHO1 120812Z 00000KT 23/15 A3005 RMK A01 T02320153  RH  061%=      5-min Rain = 0
KHO1 120813Z 00000KT 23/15 A3005 RMK A01 T02310152  RH  061%=      5-min Rain = 0
KHO1 120814Z 00000KT 23/15 A3005 RMK A01 T02310153  RH  061%=      5-min Rain = 0
KHO1 120815Z 00000KT 23/15 A3005 RMK A01 T02310153  RH  061%=      5-min Rain = 0
KHO1 120816Z 34000KT 23/15 A3005 RMK A01 T02310152  RH  061%=      5-min Rain = 0
KHO1 120817Z 00000KT 23/15 A3005 RMK A01 T02300153  RH  062%=      5-min Rain = 0
KHO1 120818Z 34000KT 23/15 A3005 RMK A01 T02300153  RH  062%=      5-min Rain = 0
KHO1 120819Z 08002KT 23/15 A3005 RMK A01 T02300152  RH  062%=      5-min Rain = 0
KHO1 120820Z 09002KT 23/15 A3005 RMK A01 T02300152  RH  061%=      5-min Rain = 0
KHO1 120821Z 09002KT 23/15 A3005 RMK A01 T02300151  RH  061%=      5-min Rain = 0
KHO1 120822Z 09001KT 23/15 A3005 RMK A01 T02290153  RH  062%=      5-min Rain = 0
KHO1 120823Z 09000KT 23/15 A3005 RMK A01 T02300154  RH  062%=      5-min Rain = 0
KHO1 120824Z 00000KT 23/15 A3005 RMK A01 T02300154  RH  062%=      5-min Rain = 0
KHO1 120825Z 00000KT 23/15 A3004 RMK A01 T02300154  RH  062%=      5-min Rain = 0
KHO1 120826Z 09001KT 23/15 A3004 RMK A01 T02310152  RH  061%=      5-min Rain = 0
KHO1 120827Z 09003KT 23/15 A3004 RMK A01 T02300150  RH  061%=      5-min Rain = 0
KHO1 120828Z 11002KT 23/15 A3004 RMK A01 T02300151  RH  061%=      5-min Rain = 0
KHO1 120829Z 12002KT 23/15 A3004 RMK A01 T02310152  RH  061%=      5-min Rain = 0
KHO1 120830Z 12002KT 23/15 A3004 RMK A01 T02310152  RH  061%=      5-min Rain = 0
KHO1 120831Z 13002KT 23/15 A3004 RMK A01 T02320151  RH  060%=      5-min Rain = 0
KHO1 120832Z 13001KT 23/15 A3004 RMK A01 T02330147  RH  059%=      5-min Rain = 0
KHO1 120833Z 13001KT 23/15 A3004 RMK A01 T02340148  RH  058%=      5-min Rain = 0
KHO1 120834Z 12002KT 23/15 A3004 RMK A01 T02340148  RH  059%=      5-min Rain = 0
KHO1 120835Z 12002KT 23/15 A3004 RMK A01 T02340149  RH  059%=      5-min Rain = 0
KHO1 120836Z 12001KT 23/15 A3004 RMK A01 T02340150  RH  059%=      5-min Rain = 0
KHO1 120837Z 12001KT 23/15 A3004 RMK A01 T02340150  RH  059%=      5-min Rain = 0
KHO1 120838Z 12000KT 23/15 A3004 RMK A01 T02330149  RH  059%=      5-min Rain = 0
KHO1 120839Z 13001KT 23/15 A3004 RMK A01 T02330149  RH  059%=      5-min Rain = 0
KHO1 120840Z 14001KT 23/15 A3004 RMK A01 T02330146  RH  058%=      5-min Rain = 0
KHO1 120841Z 00000KT 23/15 A3004 RMK A01 T02330147  RH  058%=      5-min Rain = 0
KHO1 120842Z 00000KT 23/15 A3004 RMK A01 T02330147  RH  058%=      5-min Rain = 0
KHO1 120843Z 14000KT 23/15 A3004 RMK A01 T02340148  RH  059%=      5-min Rain = 0
KHO1 120844Z 14001KT 23/15 A3004 RMK A01 T02340150  RH  059%=      5-min Rain = 0
KHO1 120845Z 14001KT 23/15 A3004 RMK A01 T02340150  RH  059%=      5-min Rain = 0
KHO1 120846Z 10000KT 23/15 A3004 RMK A01 T02340150  RH  059%=      5-min Rain = 0
KHO1 120847Z 00000KT 23/15 A3004 RMK A01 T02340150  RH  059%=      5-min Rain = 0
KHO1 120848Z 00000KT 23/15 A3004 RMK A01 T02340151  RH  059%=      5-min Rain = 0
KHO1 120849Z 00000KT 23/15 A3004 RMK A01 T02340150  RH  059%=      5-min Rain = 0
KHO1 120850Z 00000KT 23/15 A3004 RMK A01 T02330150  RH  059%=      5-min Rain = 0
KHO1 120851Z 00000KT 23/15 A3004 RMK A01 T02320150  RH  060%=      5-min Rain = 0
KHO1 120852Z 00000KT 23/15 A3004 RMK A01 T02320151  RH  060%=      5-min Rain = 0
KHO1 120853Z 00000KT 23/15 A3004 RMK A01 T02320150  RH  060%=      5-min Rain = 0
KHO1 120854Z 00000KT 23/15 A3004 RMK A01 T02320150  RH  060%=      5-min Rain = 0
KHO1 120855Z 00000KT 23/15 A3004 RMK A01 T02320151  RH  060%=      5-min Rain = 0
KHO1 120856Z 00000KT 23/15 A3004 RMK A01 T02320150  RH  060%=      5-min Rain = 0
KHO1 120857Z 00000KT 23/15 A3004 RMK A01 T02320151  RH  060%=      5-min Rain = 0
KHO1 120858Z 00000KT 23/15 A3004 RMK A01 T02330151  RH  060%=      5-min Rain = 0
KHO1 120859Z 00000KT 23/15 A3004 RMK A01 T02330151  RH  060%=      5-min Rain = 0
KHO1 120900Z 15001KT 23/15 A3004 RMK A01 T02330151  RH  060%=      5-min Rain = 0
KHO1 120901Z 15001KT 23/15 A3004 RMK A01 T02330151  RH  060%=      5-min Rain = 0
KHO1 120902Z 15001KT 23/15 A3004 RMK A01 T02330150  RH  059%=      5-min Rain = 0
KHO1 120903Z 15001KT 23/15 A3004 RMK A01 T02330148  RH  059%=      5-min Rain = 0
KHO1 120904Z 15001KT 23/15 A3004 RMK A01 T02330146  RH  058%=      5-min Rain = 0
KHO1 120905Z 15002KT 23/15 A3004 RMK A01 T02340145  RH  057%=      5-min Rain = 0
KHO1 120906Z 15002KT 23/15 A3003 RMK A01 T02340146  RH  058%=      5-min Rain = 0
KHO1 120907Z 15002KT 23/15 A3004 RMK A01 T02320146  RH  058%=      5-min Rain = 0
KHO1 120908Z 15002KT 23/15 A3003 RMK A01 T02320146  RH  059%=      5-min Rain = 0
KHO1 120909Z 15003KT 23/15 A3003 RMK A01 T02310147  RH  059%=      5-min Rain = 0
KHO1 120910Z 15003KT 23/15 A3003 RMK A01 T02310146  RH  059%=      5-min Rain = 0
KHO1 120911Z 15004KT 23/15 A3003 RMK A01 T02310146  RH  059%=      5-min Rain = 0
KHO1 120912Z 16004KT 23/15 A3003 RMK A01 T02320146  RH  058%=      5-min Rain = 0
KHO1 120913Z 16004KT 23/15 A3003 RMK A01 T02330146  RH  058%=      5-min Rain = 0
KHO1 120914Z 16005KT 23/14 A3003 RMK A01 T02340144  RH  057%=      5-min Rain = 0
KHO1 120915Z 17005KT 24/14 A3003 RMK A01 T02350142  RH  056%=      5-min Rain = 0
KHO1 120916Z 17005KT 24/14 A3003 RMK A01 T02350141  RH  055%=      5-min Rain = 0
KHO1 120917Z 17005KT 24/14 A3003 RMK A01 T02370140  RH  055%=      5-min Rain = 0
KHO1 120918Z 16005KT 24/14 A3003 RMK A01 T02380139  RH  054%=      5-min Rain = 0
KHO1 120919Z 16005KT 24/14 A3003 RMK A01 T02390138  RH  053%=      5-min Rain = 0
KHO1 120920Z 16005KT 24/14 A3003 RMK A01 T02390137  RH  053%=      5-min Rain = 0
KHO1 120921Z 16005KT 24/14 A3003 RMK A01 T02390137  RH  053%=      5-min Rain = 0
KHO1 120922Z 16005KT 24/14 A3003 RMK A01 T02400138  RH  053%=      5-min Rain = 0
KHO1 120923Z 16005KT 24/14 A3003 RMK A01 T02410138  RH  053%=      5-min Rain = 0
KHO1 120924Z 17005KT 24/14 A3003 RMK A01 T02410138  RH  052%=      5-min Rain = 0
KHO1 120925Z 16005KT 24/14 A3003 RMK A01 T02420138  RH  052%=      5-min Rain = 0
KHO1 120926Z 17005KT 24/14 A3003 RMK A01 T02430138  RH  052%=      5-min Rain = 0
KHO1 120927Z 16005KT 24/14 A3003 RMK A01 T02430138  RH  052%=      5-min Rain = 0
KHO1 120928Z 16005KT 24/14 A3003 RMK A01 T02430138  RH  052%=      5-min Rain = 0
KHO1 120929Z 16005KT 24/14 A3003 RMK A01 T02430137  RH  052%=      5-min Rain = 0
KHO1 120930Z 16005KT 24/14 A3003 RMK A01 T02430137  RH  052%=      5-min Rain = 0
KHO1 120931Z 16005KT 24/14 A3003 RMK A01 T02430138  RH  052%=      5-min Rain = 0
KHO1 120932Z 16005KT 24/14 A3003 RMK A01 T02430138  RH  052%=      5-min Rain = 0
KHO1 120933Z 16005KT 24/14 A3003 RMK A01 T02420138  RH  052%=      5-min Rain = 0
KHO1 120934Z 16005KT 24/14 A3003 RMK A01 T02420138  RH  052%=      5-min Rain = 0
KHO1 120935Z 17005KT 24/14 A3003 RMK A01 T02420138  RH  052%=      5-min Rain = 0
KHO1 120936Z 17005KT 24/14 A3003 RMK A01 T02430139  RH  052%=      5-min Rain = 0
KHO1 120937Z 17005KT 24/14 A3003 RMK A01 T02430138  RH  052%=      5-min Rain = 0
KHO1 120938Z 17004KT 24/14 A3003 RMK A01 T02430138  RH  052%=      5-min Rain = 0
KHO1 120939Z 17004KT 24/14 A3003 RMK A01 T02440138  RH  052%=      5-min Rain = 0
KHO1 120940Z 17004KT 24/14 A3003 RMK A01 T02440138  RH  052%=      5-min Rain = 0
KHO1 120941Z 17004KT 24/14 A3003 RMK A01 T02440138  RH  052%=      5-min Rain = 0
KHO1 120942Z 17004KT 24/14 A3003 RMK A01 T02430138  RH  052%=      5-min Rain = 0
KHO1 120943Z 17003KT 24/14 A3003 RMK A01 T02420137  RH  052%=      5-min Rain = 0
KHO1 120944Z 17003KT 24/14 A3003 RMK A01 T02410138  RH  052%=      5-min Rain = 0
KHO1 120945Z 17003KT 24/14 A3003 RMK A01 T02400138  RH  053%=      5-min Rain = 0
KHO1 120946Z 17003KT 24/14 A3004 RMK A01 T02400138  RH  053%=      5-min Rain = 0
KHO1 120947Z 17003KT 24/14 A3004 RMK A01 T02390139  RH  053%=      5-min Rain = 0
KHO1 120948Z 17003KT 24/14 A3004 RMK A01 T02390139  RH  054%=      5-min Rain = 0
KHO1 120949Z 17003KT 24/14 A3003 RMK A01 T02380139  RH  054%=      5-min Rain = 0
KHO1 120950Z 17003KT 24/14 A3003 RMK A01 T02380139  RH  054%=      5-min Rain = 0
KHO1 120951Z 18003KT 24/14 A3003 RMK A01 T02380140  RH  054%=      5-min Rain = 0
KHO1 120952Z 18003KT 24/14 A3003 RMK A01 T02380140  RH  054%=      5-min Rain = 0
KHO1 120953Z 18003KT 24/14 A3003 RMK A01 T02380140  RH  054%=      5-min Rain = 0
KHO1 120954Z 18002KT 24/14 A3003 RMK A01 T02380140  RH  054%=      5-min Rain = 0
KHO1 120955Z 18003KT 24/14 A3003 RMK A01 T02390140  RH  054%=      5-min Rain = 0
KHO1 120956Z 18003KT 24/14 A3003 RMK A01 T02390140  RH  054%=      5-min Rain = 0
KHO1 120957Z 18003KT 24/14 A3003 RMK A01 T02390140  RH  054%=      5-min Rain = 0
KHO1 120958Z 18003KT 24/14 A3003 RMK A01 T02390139  RH  054%=      5-min Rain = 0
KHO1 120959Z 18003KT 24/14 A3003 RMK A01 T02390139  RH  054%=      5-min Rain = 0
KHO1 121000Z 18003KT 24/14 A3003 RMK A01 T02380139  RH  054%=      5-min Rain = 0
KHO1 121001Z 18002KT 24/14 A3003 RMK A01 T02380139  RH  054%=      5-min Rain = 0
KHO1 121002Z 18002KT 24/14 A3003 RMK A01 T02370139  RH  054%=      5-min Rain = 0
KHO1 121003Z 18002KT 24/14 A3003 RMK A01 T02370139  RH  054%=      5-min Rain = 0
KHO1 121004Z 18002KT 24/14 A3003 RMK A01 T02370140  RH  054%=      5-min Rain = 0
KHO1 121005Z 18002KT 24/14 A3003 RMK A01 T02370140  RH  055%=      5-min Rain = 0
KHO1 121006Z 18002KT 24/14 A3003 RMK A01 T02370140  RH  055%=      5-min Rain = 0
KHO1 121007Z 18002KT 24/14 A3003 RMK A01 T02370140  RH  055%=      5-min Rain = 0
KHO1 121008Z 18002KT 24/14 A3003 RMK A01 T02360140  RH  055%=      5-min Rain = 0
KHO1 121009Z 18002KT 24/14 A3003 RMK A01 T02360140  RH  055%=      5-min Rain = 0
KHO1 121010Z 18002KT 24/14 A3003 RMK A01 T02360140  RH  055%=      5-min Rain = 0
KHO1 121011Z 18002KT 24/14 A3003 RMK A01 T02360140  RH  055%=      5-min Rain = 0
KHO1 121012Z 18002KT 24/14 A3003 RMK A01 T02360140  RH  055%=      5-min Rain = 0
KHO1 121013Z 18002KT 24/14 A3003 RMK A01 T02350140  RH  055%=      5-min Rain = 0
KHO1 121014Z 18002KT 24/14 A3003 RMK A01 T02350139  RH  055%=      5-min Rain = 0
KHO1 121015Z 18003KT 24/14 A3003 RMK A01 T02350139  RH  055%=      5-min Rain = 0
KHO1 121016Z 18002KT 24/14 A3003 RMK A01 T02350139  RH  055%=      5-min Rain = 0
KHO1 121017Z 18002KT 24/14 A3003 RMK A01 T02350139  RH  055%=      5-min Rain = 0
KHO1 121018Z 18002KT 24/14 A3003 RMK A01 T02350139  RH  055%=      5-min Rain = 0
KHO1 121019Z 18002KT 23/14 A3003 RMK A01 T02340139  RH  055%=      5-min Rain = 0
KHO1 121020Z 18002KT 23/14 A3003 RMK A01 T02340139  RH  055%=      5-min Rain = 0
KHO1 121021Z 18002KT 23/14 A3003 RMK A01 T02340139  RH  055%=      5-min Rain = 0
KHO1 121022Z 18002KT 23/14 A3003 RMK A01 T02340139  RH  055%=      5-min Rain = 0
KHO1 121023Z 18001KT 23/14 A3003 RMK A01 T02330138  RH  055%=      5-min Rain = 0
KHO1 121024Z 18001KT 23/14 A3003 RMK A01 T02330138  RH  055%=      5-min Rain = 0
KHO1 121025Z 18001KT 23/14 A3003 RMK A01 T02330138  RH  055%=      5-min Rain = 0
KHO1 121026Z 18000KT 23/14 A3003 RMK A01 T02320137  RH  055%=      5-min Rain = 0
KHO1 121027Z 00000KT 23/14 A3003 RMK A01 T02320138  RH  055%=      5-min Rain = 0
KHO1 121028Z 00000KT 23/14 A3003 RMK A01 T02320139  RH  056%=      5-min Rain = 0
KHO1 121029Z 18000KT 23/14 A3003 RMK A01 T02320139  RH  056%=      5-min Rain = 0
KHO1 121030Z 18001KT 23/14 A3003 RMK A01 T02330139  RH  056%=      5-min Rain = 0
KHO1 121031Z 18001KT 23/14 A3003 RMK A01 T02340140  RH  056%=      5-min Rain = 0
KHO1 121032Z 18001KT 23/14 A3003 RMK A01 T02340142  RH  056%=      5-min Rain = 0
KHO1 121033Z 18001KT 23/14 A3003 RMK A01 T02330144  RH  057%=      5-min Rain = 0
KHO1 121034Z 18001KT 23/15 A3003 RMK A01 T02320146  RH  058%=      5-min Rain = 0
KHO1 121035Z 18001KT 23/15 A3003 RMK A01 T02310148  RH  059%=      5-min Rain = 0
KHO1 121036Z 18001KT 23/15 A3003 RMK A01 T02290148  RH  060%=      5-min Rain = 0
KHO1 121037Z 18001KT 23/15 A3003 RMK A01 T02280147  RH  060%=      5-min Rain = 0
KHO1 121038Z 18001KT 23/15 A3003 RMK A01 T02270148  RH  061%=      5-min Rain = 0
KHO1 121039Z 18000KT 23/15 A3003 RMK A01 T02260150  RH  062%=      5-min Rain = 0
KHO1 121040Z 18000KT 23/15 A3003 RMK A01 T02250152  RH  063%=      5-min Rain = 0
KHO1 121041Z 18000KT 22/15 A3003 RMK A01 T02240151  RH  063%=      5-min Rain = 0
KHO1 121042Z 18000KT 22/15 A3003 RMK A01 T02240150  RH  063%=      5-min Rain = 0
KHO1 121043Z 18001KT 22/15 A3003 RMK A01 T02240150  RH  063%=      5-min Rain = 0
KHO1 121044Z 18001KT 22/15 A3003 RMK A01 T02230151  RH  063%=      5-min Rain = 0
KHO1 121045Z 18001KT 22/15 A3003 RMK A01 T02230151  RH  064%=      5-min Rain = 0
KHO1 121046Z 18001KT 22/15 A3003 RMK A01 T02230151  RH  063%=      5-min Rain = 0
KHO1 121047Z 18002KT 22/15 A3003 RMK A01 T02230150  RH  063%=      5-min Rain = 0
KHO1 121048Z 18002KT 22/15 A3003 RMK A01 T02230150  RH  063%=      5-min Rain = 0
KHO1 121049Z 18002KT 22/15 A3003 RMK A01 T02230149  RH  063%=      5-min Rain = 0
KHO1 121050Z 18002KT 22/15 A3003 RMK A01 T02230149  RH  063%=      5-min Rain = 0
KHO1 121051Z 18002KT 22/15 A3003 RMK A01 T02240148  RH  062%=      5-min Rain = 0
KHO1 121052Z 18003KT 22/15 A3003 RMK A01 T02240149  RH  063%=      5-min Rain = 0
KHO1 121053Z 18003KT 22/15 A3003 RMK A01 T02240149  RH  063%=      5-min Rain = 0
KHO1 121054Z 18003KT 22/15 A3003 RMK A01 T02240149  RH  063%=      5-min Rain = 0
KHO1 121055Z 18003KT 22/15 A3003 RMK A01 T02230148  RH  063%=      5-min Rain = 0
KHO1 121056Z 18003KT 22/15 A3003 RMK A01 T02220148  RH  063%=      5-min Rain = 0
KHO1 121057Z 17003KT 22/15 A3003 RMK A01 T02220148  RH  063%=      5-min Rain = 0
KHO1 121058Z 35003KT 22/15 A3003 RMK A01 T02210147  RH  063%=      5-min Rain = 0
KHO1 121059Z 35002KT 22/15 A3003 RMK A01 T02210146  RH  063%=      5-min Rain = 0
KHO1 121100Z 35002KT 22/15 A3003 RMK A01 T02200146  RH  063%=      5-min Rain = 0
KHO1 121101Z 35002KT 22/15 A3003 RMK A01 T02200147  RH  063%=      5-min Rain = 0
KHO1 121102Z 35002KT 22/15 A3003 RMK A01 T02200147  RH  063%=      5-min Rain = 0
KHO1 121103Z 35002KT 22/15 A3003 RMK A01 T02200147  RH  063%=      5-min Rain = 0
KHO1 121104Z 35002KT 22/15 A3003 RMK A01 T02200146  RH  063%=      5-min Rain = 0
KHO1 121105Z 35002KT 22/15 A3003 RMK A01 T02200146  RH  063%=      5-min Rain = 0
KHO1 121106Z 35002KT 22/15 A3003 RMK A01 T02210146  RH  062%=      5-min Rain = 0
KHO1 121107Z 35002KT 22/15 A3004 RMK A01 T02210146  RH  062%=      5-min Rain = 0
KHO1 121108Z 35002KT 22/15 A3004 RMK A01 T02210146  RH  062%=      5-min Rain = 0
KHO1 121109Z 35002KT 22/15 A3004 RMK A01 T02210146  RH  062%=      5-min Rain = 0
KHO1 121110Z 35002KT 22/15 A3004 RMK A01 T02210146  RH  062%=      5-min Rain = 0
KHO1 121111Z 35002KT 22/15 A3004 RMK A01 T02210146  RH  062%=      5-min Rain = 0
KHO1 121112Z 35001KT 22/15 A3004 RMK A01 T02210146  RH  062%=      5-min Rain = 0
KHO1 121113Z 35001KT 22/15 A3004 RMK A01 T02220145  RH  062%=      5-min Rain = 0
KHO1 121114Z 35001KT 22/15 A3004 RMK A01 T02220145  RH  062%=      5-min Rain = 0
KHO1 121115Z 35001KT 22/14 A3004 RMK A01 T02220144  RH  062%=      5-min Rain = 0
KHO1 121116Z 35001KT 22/15 A3004 RMK A01 T02220145  RH  062%=      5-min Rain = 0
KHO1 121117Z 35001KT 22/15 A3004 RMK A01 T02210146  RH  062%=      5-min Rain = 0
KHO1 121118Z 35001KT 22/15 A3004 RMK A01 T02220146  RH  062%=      5-min Rain = 0
KHO1 121119Z 35001KT 22/15 A3004 RMK A01 T02220145  RH  062%=      5-min Rain = 0
KHO1 121120Z 35001KT 22/15 A3004 RMK A01 T02220145  RH  062%=      5-min Rain = 0
KHO1 121121Z 35001KT 22/15 A3004 RMK A01 T02220145  RH  062%=      5-min Rain = 0
KHO1 121122Z 00000KT 22/15 A3004 RMK A01 T02220145  RH  062%=      5-min Rain = 0
KHO1 121123Z 35000KT 22/15 A3004 RMK A01 T02220145  RH  062%=      5-min Rain = 0
KHO1 121124Z 35000KT 22/14 A3004 RMK A01 T02220144  RH  062%=      5-min Rain = 0
KHO1 121125Z 00000KT 22/14 A3004 RMK A01 T02210144  RH  062%=      5-min Rain = 0
KHO1 121126Z 00000KT 22/14 A3004 RMK A01 T02210143  RH  061%=      5-min Rain = 0
KHO1 121127Z 00000KT 22/14 A3004 RMK A01 T02190142  RH  061%=      5-min Rain = 0
KHO1 121128Z 00000KT 22/14 A3004 RMK A01 T02180143  RH  062%=      5-min Rain = 0
KHO1 121129Z 00000KT 22/14 A3004 RMK A01 T02180143  RH  063%=      5-min Rain = 0
KHO1 121130Z 00000KT 22/14 A3004 RMK A01 T02170144  RH  063%=      5-min Rain = 0
KHO1 121131Z 00000KT 22/14 A3004 RMK A01 T02170144  RH  063%=      5-min Rain = 0
KHO1 121132Z 00000KT 22/15 A3004 RMK A01 T02170145  RH  064%=      5-min Rain = 0
KHO1 121133Z 32000KT 22/15 A3004 RMK A01 T02160145  RH  064%=      5-min Rain = 0
KHO1 121134Z 32000KT 22/15 A3004 RMK A01 T02160145  RH  064%=      5-min Rain = 0
KHO1 121135Z 00000KT 22/15 A3004 RMK A01 T02160145  RH  064%=      5-min Rain = 0
KHO1 121136Z 00000KT 22/15 A3004 RMK A01 T02160145  RH  064%=      5-min Rain = 0
KHO1 121137Z 32000KT 22/15 A3004 RMK A01 T02160145  RH  064%=      5-min Rain = 0
KHO1 121138Z 00000KT 22/15 A3004 RMK A01 T02160145  RH  064%=      5-min Rain = 0
KHO1 121139Z 00000KT 22/15 A3004 RMK A01 T02160145  RH  064%=      5-min Rain = 0
KHO1 121140Z 00000KT 22/15 A3004 RMK A01 T02160145  RH  064%=      5-min Rain = 0
KHO1 121141Z 24000KT 22/15 A3004 RMK A01 T02160145  RH  064%=      5-min Rain = 0
KHO1 121142Z 23002KT 22/14 A3004 RMK A01 T02160144  RH  064%=      5-min Rain = 0
KHO1 121143Z 23002KT 22/14 A3004 RMK A01 T02160144  RH  064%=      5-min Rain = 0
KHO1 121144Z 23002KT 22/14 A3004 RMK A01 T02160144  RH  063%=      5-min Rain = 0
KHO1 121145Z 23002KT 22/14 A3004 RMK A01 T02170144  RH  063%=      5-min Rain = 0
KHO1 121146Z 23002KT 22/14 A3004 RMK A01 T02170144  RH  063%=      5-min Rain = 0
KHO1 121147Z 23002KT 22/14 A3004 RMK A01 T02170144  RH  063%=      5-min Rain = 0
KHO1 121148Z 23002KT 22/14 A3004 RMK A01 T02170144  RH  063%=      5-min Rain = 0
KHO1 121149Z 23002KT 22/14 A3004 RMK A01 T02170143  RH  063%=      5-min Rain = 0
KHO1 121150Z 23002KT 22/14 A3005 RMK A01 T02170144  RH  063%=      5-min Rain = 0
KHO1 121151Z 23002KT 22/15 A3005 RMK A01 T02180145  RH  063%=      5-min Rain = 0
KHO1 121152Z 23002KT 22/15 A3005 RMK A01 T02180146  RH  064%=      5-min Rain = 0
KHO1 121153Z 23001KT 22/15 A3005 RMK A01 T02190147  RH  064%=      5-min Rain = 0
KHO1 121154Z 24001KT 22/15 A3005 RMK A01 T02190148  RH  064%=      5-min Rain = 0
KHO1 121155Z 24001KT 22/15 A3005 RMK A01 T02190149  RH  064%=      5-min Rain = 0
KHO1 121156Z 24001KT 22/15 A3005 RMK A01 T02190149  RH  064%=      5-min Rain = 0
KHO1 121157Z 24001KT 22/15 A3005 RMK A01 T02190149  RH  064%=      5-min Rain = 0
KHO1 121158Z 24001KT 22/15 A3005 RMK A01 T02190149  RH  064%=      5-min Rain = 0
KHO1 121159Z 24001KT 22/15 A3005 RMK A01 T02190148  RH  064%=      5-min Rain = 0
KHO1 121200Z 24001KT 22/15 A3005 RMK A01 T02190148  RH  064%=      5-min Rain = 0
KHO1 121201Z 24001KT 22/15 A3005 RMK A01 T02190148  RH  064%=      5-min Rain = 0
KHO1 121202Z 24001KT 22/15 A3005 RMK A01 T02190148  RH  064%=      5-min Rain = 0
KHO1 121203Z 24000KT 22/15 A3005 RMK A01 T02190149  RH  064%=      5-min Rain = 0
KHO1 121204Z 00000KT 22/15 A3005 RMK A01 T02190149  RH  064%=      5-min Rain = 0
KHO1 121205Z 00000KT 22/15 A3005 RMK A01 T02190148  RH  064%=      5-min Rain = 0
KHO1 121206Z 00000KT 22/15 A3005 RMK A01 T02200148  RH  064%=      5-min Rain = 0
KHO1 121207Z 00000KT 22/15 A3005 RMK A01 T02200148  RH  064%=      5-min Rain = 0
KHO1 121208Z 23000KT 22/15 A3005 RMK A01 T02200148  RH  064%=      5-min Rain = 0
KHO1 121209Z 23000KT 22/15 A3005 RMK A01 T02200147  RH  064%=      5-min Rain = 0
KHO1 121210Z 23000KT 22/15 A3005 RMK A01 T02190147  RH  063%=      5-min Rain = 0
KHO1 121211Z 23000KT 22/15 A3005 RMK A01 T02190146  RH  063%=      5-min Rain = 0
KHO1 121212Z 20000KT 22/15 A3005 RMK A01 T02190146  RH  063%=      5-min Rain = 0
KHO1 121213Z 18002KT 22/15 A3005 RMK A01 T02200146  RH  063%=      5-min Rain = 0
KHO1 121214Z 18002KT 22/14 A3005 RMK A01 T02200144  RH  062%=      5-min Rain = 0
KHO1 121215Z 17003KT 22/14 A3005 RMK A01 T02220144  RH  061%=      5-min Rain = 0
KHO1 121216Z 17003KT 22/14 A3005 RMK A01 T02230143  RH  061%=      5-min Rain = 0
KHO1 121217Z 17003KT 23/14 A3005 RMK A01 T02250143  RH  060%=      5-min Rain = 0
KHO1 121218Z 17003KT 23/14 A3005 RMK A01 T02260142  RH  059%=      5-min Rain = 0
KHO1 121219Z 17003KT 23/14 A3005 RMK A01 T02260142  RH  059%=      5-min Rain = 0
KHO1 121220Z 17003KT 23/14 A3005 RMK A01 T02260142  RH  059%=      5-min Rain = 0
KHO1 121221Z 17003KT 23/14 A3005 RMK A01 T02270142  RH  059%=      5-min Rain = 0
KHO1 121222Z 17003KT 23/14 A3005 RMK A01 T02280142  RH  058%=      5-min Rain = 0
KHO1 121223Z 17003KT 23/14 A3005 RMK A01 T02280142  RH  058%=      5-min Rain = 0
KHO1 121224Z 17003KT 23/14 A3005 RMK A01 T02290142  RH  058%=      5-min Rain = 0
KHO1 121225Z 16003KT 23/14 A3005 RMK A01 T02300142  RH  057%=      5-min Rain = 0
KHO1 121226Z 16003KT 23/14 A3005 RMK A01 T02300142  RH  057%=      5-min Rain = 0
KHO1 121227Z 15003KT 23/14 A3005 RMK A01 T02300141  RH  057%=      5-min Rain = 0
KHO1 121228Z 15003KT 23/14 A3005 RMK A01 T02290141  RH  058%=      5-min Rain = 0
KHO1 121229Z 15003KT 23/14 A3005 RMK A01 T02280141  RH  058%=      5-min Rain = 0
KHO1 121230Z 14003KT 23/14 A3005 RMK A01 T02280142  RH  058%=      5-min Rain = 0
KHO1 121231Z 14003KT 23/14 A3005 RMK A01 T02280142  RH  058%=      5-min Rain = 0
KHO1 121232Z 14003KT 23/14 A3005 RMK A01 T02280141  RH  058%=      5-min Rain = 0
KHO1 121233Z 14003KT 23/14 A3005 RMK A01 T02270141  RH  058%=      5-min Rain = 0
KHO1 121234Z 13003KT 23/14 A3005 RMK A01 T02270141  RH  058%=      5-min Rain = 0
KHO1 121235Z 13003KT 23/14 A3006 RMK A01 T02280141  RH  058%=      5-min Rain = 0
KHO1 121236Z 13002KT 23/14 A3006 RMK A01 T02280141  RH  058%=      5-min Rain = 0
KHO1 121237Z 13002KT 23/14 A3006 RMK A01 T02280143  RH  059%=      5-min Rain = 0
KHO1 121238Z 13002KT 23/14 A3006 RMK A01 T02270144  RH  059%=      5-min Rain = 0
KHO1 121239Z 13002KT 23/14 A3006 RMK A01 T02270144  RH  059%=      5-min Rain = 0
KHO1 121240Z 13002KT 23/15 A3006 RMK A01 T02270145  RH  060%=      5-min Rain = 0
KHO1 121241Z 13003KT 23/15 A3006 RMK A01 T02270145  RH  060%=      5-min Rain = 0
KHO1 121242Z 13003KT 23/15 A3006 RMK A01 T02270145  RH  060%=      5-min Rain = 0
KHO1 121243Z 13003KT 23/15 A3006 RMK A01 T02260145  RH  060%=      5-min Rain = 0
KHO1 121244Z 13003KT 23/15 A3006 RMK A01 T02260145  RH  060%=      5-min Rain = 0
KHO1 121245Z 13003KT 23/15 A3006 RMK A01 T02260145  RH  060%=      5-min Rain = 0
KHO1 121246Z 13002KT 23/15 A3006 RMK A01 T02260146  RH  060%=      5-min Rain = 0
KHO1 121247Z 13002KT 23/15 A3006 RMK A01 T02260147  RH  061%=      5-min Rain = 0
KHO1 121248Z 13002KT 23/15 A3006 RMK A01 T02260147  RH  061%=      5-min Rain = 0
KHO1 121249Z 13002KT 23/15 A3006 RMK A01 T02260148  RH  061%=      5-min Rain = 0
KHO1 121250Z 13002KT 23/15 A3006 RMK A01 T02260149  RH  061%=      5-min Rain = 0
KHO1 121251Z 13001KT 23/15 A3006 RMK A01 T02270149  RH  062%=      5-min Rain = 0
KHO1 121252Z 13001KT 23/15 A3006 RMK A01 T02260149  RH  062%=      5-min Rain = 0
KHO1 121253Z 12002KT 23/15 A3006 RMK A01 T02260150  RH  062%=      5-min Rain = 0
KHO1 121254Z 12003KT 23/15 A3006 RMK A01 T02260150  RH  062%=      5-min Rain = 0
KHO1 121255Z 11003KT 23/15 A3006 RMK A01 T02260150  RH  062%=      5-min Rain = 0
KHO1 121256Z 11003KT 23/15 A3006 RMK A01 T02260151  RH  062%=      5-min Rain = 0
KHO1 121257Z 11004KT 23/15 A3006 RMK A01 T02260151  RH  063%=      5-min Rain = 0
KHO1 121258Z 11004KT 23/15 A3006 RMK A01 T02260151  RH  063%=      5-min Rain = 0
KHO1 121259Z 11003KT 23/15 A3006 RMK A01 T02260152  RH  063%=      5-min Rain = 0
KHO1 121300Z 11003KT 23/15 A3006 RMK A01 T02260152  RH  063%=      5-min Rain = 0
KHO1 121301Z 11003KT 23/15 A3006 RMK A01 T02260152  RH  063%=      5-min Rain = 0
KHO1 121302Z 11002KT 23/15 A3006 RMK A01 T02260153  RH  063%=      5-min Rain = 0
KHO1 121303Z 11002KT 23/15 A3006 RMK A01 T02270153  RH  063%=      5-min Rain = 0
KHO1 121304Z 11002KT 23/15 A3006 RMK A01 T02270153  RH  063%=      5-min Rain = 0
KHO1 121305Z 11003KT 23/15 A3006 RMK A01 T02270153  RH  063%=      5-min Rain = 0
KHO1 121306Z 11003KT 23/15 A3006 RMK A01 T02280153  RH  063%=      5-min Rain = 0
KHO1 121307Z 11003KT 23/15 A3006 RMK A01 T02280153  RH  063%=      5-min Rain = 0
KHO1 121308Z 11003KT 23/15 A3006 RMK A01 T02290154  RH  062%=      5-min Rain = 0
KHO1 121309Z 11002KT 23/15 A3006 RMK A01 T02300153  RH  062%=      5-min Rain = 0
KHO1 121310Z 11002KT 23/15 A3006 RMK A01 T02300154  RH  062%=      5-min Rain = 0
KHO1 121311Z 11002KT 23/15 A3006 RMK A01 T02310153  RH  061%=      5-min Rain = 0
KHO1 121312Z 11002KT 23/15 A3006 RMK A01 T02320153  RH  061%=      5-min Rain = 0
KHO1 121313Z 11002KT 23/15 A3006 RMK A01 T02330153  RH  061%=      5-min Rain = 0
KHO1 121314Z 12002KT 23/15 A3006 RMK A01 T02340151  RH  060%=      5-min Rain = 0
KHO1 121315Z 14002KT 24/15 A3006 RMK A01 T02350148  RH  058%=      5-min Rain = 0
KHO1 121316Z 14002KT 24/15 A3007 RMK A01 T02370150  RH  058%=      5-min Rain = 0
KHO1 121317Z 14001KT 24/15 A3007 RMK A01 T02380152  RH  058%=      5-min Rain = 0
KHO1 121318Z 12002KT 24/15 A3007 RMK A01 T02390152  RH  058%=      5-min Rain = 0
KHO1 121319Z 12002KT 24/15 A3007 RMK A01 T02400151  RH  058%=      5-min Rain = 0
KHO1 121320Z 12002KT 24/15 A3007 RMK A01 T02400151  RH  057%=      5-min Rain = 0
KHO1 121321Z 11002KT 24/15 A3006 RMK A01 T02400150  RH  057%=      5-min Rain = 0
KHO1 121322Z 11002KT 24/15 A3006 RMK A01 T02410150  RH  057%=      5-min Rain = 0
KHO1 121323Z 11003KT 24/15 A3006 RMK A01 T02410150  RH  057%=      5-min Rain = 0
KHO1 121324Z 11002KT 24/15 A3006 RMK A01 T02420150  RH  056%=      5-min Rain = 0
KHO1 121325Z 12003KT 24/15 A3006 RMK A01 T02420149  RH  056%=      5-min Rain = 0
KHO1 121326Z 12003KT 24/15 A3006 RMK A01 T02430149  RH  056%=      5-min Rain = 0
KHO1 121327Z 11004KT 24/15 A3006 RMK A01 T02430148  RH  055%=      5-min Rain = 0
KHO1 121328Z 12003KT 24/15 A3007 RMK A01 T02440148  RH  055%=      5-min Rain = 0
KHO1 121329Z 12003KT 24/15 A3007 RMK A01 T02440147  RH  055%=      5-min Rain = 0
KHO1 121330Z 12004KT 24/15 A3007 RMK A01 T02440148  RH  055%=      5-min Rain = 0
KHO1 121331Z 12004KT 24/15 A3007 RMK A01 T02440148  RH  055%=      5-min Rain = 0
KHO1 121332Z 12004KT 25/15 A3007 RMK A01 T02450149  RH  055%=      5-min Rain = 0
KHO1 121333Z 12004KT 25/15 A3006 RMK A01 T02450149  RH  055%=      5-min Rain = 0
KHO1 121334Z 12005KT 25/15 A3006 RMK A01 T02450149  RH  055%=      5-min Rain = 0
KHO1 121335Z 11005KT 25/15 A3006 RMK A01 T02460150  RH  055%=      5-min Rain = 0
KHO1 121336Z 12005KT 25/15 A3006 RMK A01 T02460151  RH  055%=      5-min Rain = 0
KHO1 121337Z 12004KT 25/15 A3007 RMK A01 T02470150  RH  055%=      5-min Rain = 0
KHO1 121338Z 12004KT 25/15 A3007 RMK A01 T02470150  RH  055%=      5-min Rain = 0
KHO1 121339Z 12004KT 25/15 A3006 RMK A01 T02470150  RH  055%=      5-min Rain = 0
KHO1 121340Z 13004KT 25/15 A3006 RMK A01 T02470151  RH  055%=      5-min Rain = 0
KHO1 121341Z 14005KT 25/15 A3007 RMK A01 T02470150  RH  055%=      5-min Rain = 0
KHO1 121342Z 14005KT 25/15 A3007 RMK A01 T02470147  RH  054%=      5-min Rain = 0
KHO1 121343Z 14005KT 25/15 A3006 RMK A01 T02470148  RH  054%=      5-min Rain = 0
KHO1 121344Z 14006KT 25/15 A3006 RMK A01 T02480145  RH  053%=      5-min Rain = 0
KHO1 121345Z 13004KT 25/15 A3006 RMK A01 T02480147  RH  053%=      5-min Rain = 0
KHO1 121346Z 14004KT 25/15 A3007 RMK A01 T02490148  RH  053%=      5-min Rain = 0
KHO1 121347Z 15005KT 25/15 A3007 RMK A01 T02500148  RH  053%=      5-min Rain = 0
KHO1 121348Z 14005KT 25/15 A3007 RMK A01 T02500147  RH  053%=      5-min Rain = 0
KHO1 121349Z 14004KT 25/15 A3007 RMK A01 T02510145  RH  052%=      5-min Rain = 0
KHO1 121350Z 15006KT 25/15 A3007 RMK A01 T02520145  RH  051%=      5-min Rain = 0
KHO1 121351Z 15006KT 25/14 A3007 RMK A01 T02520143  RH  051%=      5-min Rain = 0
KHO1 121352Z 14006KT 25/14 A3007 RMK A01 T02520143  RH  051%=      5-min Rain = 0
KHO1 121353Z 16007KT 25/14 A3007 RMK A01 T02530142  RH  050%=      5-min Rain = 0
KHO1 121354Z 16006KT 25/14 A3007 RMK A01 T02530141  RH  050%=      5-min Rain = 0
KHO1 121355Z 16005KT 25/14 A3007 RMK A01 T02540143  RH  050%=      5-min Rain = 0
KHO1 121356Z 16005KT 26/14 A3007 RMK A01 T02550142  RH  050%=      5-min Rain = 0
KHO1 121357Z 17005KT 25/14 A3007 RMK A01 T02540141  RH  049%=      5-min Rain = 0
KHO1 121358Z 16006KT 26/14 A3007 RMK A01 T02550141  RH  049%=      5-min Rain = 0
KHO1 121359Z 17006KT 26/14 A3007 RMK A01 T02550141  RH  049%=      5-min Rain = 0
KHO1 121400Z 17006KT 26/14 A3007 RMK A01 T02570143  RH  049%=      5-min Rain = 0
KHO1 121401Z 17006KT 26/14 A3007 RMK A01 T02580141  RH  048%=      5-min Rain = 0
KHO1 121402Z 16006KT 26/14 A3007 RMK A01 T02580141  RH  048%=      5-min Rain = 0
KHO1 121403Z 17006KT 26/14 A3007 RMK A01 T02590141  RH  048%=      5-min Rain = 0
KHO1 121404Z 17005KT 26/14 A3007 RMK A01 T02590140  RH  048%=      5-min Rain = 0
KHO1 121405Z 18005KT 26/14 A3007 RMK A01 T02590141  RH  048%=      5-min Rain = 0
KHO1 121406Z 18005KT 26/14 A3007 RMK A01 T02590139  RH  047%=      5-min Rain = 0
KHO1 121407Z 17007KT 26/14 A3007 RMK A01 T02600139  RH  047%=      5-min Rain = 0
KHO1 121408Z 18007KT 26/14 A3007 RMK A01 T02600138  RH  047%=      5-min Rain = 0
KHO1 121409Z 19008KT 26/14 A3007 RMK A01 T02600137  RH  047%=      5-min Rain = 0
KHO1 121410Z 18007KT 26/14 A3007 RMK A01 T02590137  RH  047%=      5-min Rain = 0
KHO1 121411Z 18008KT 26/14 A3007 RMK A01 T02590137  RH  047%=      5-min Rain = 0
KHO1 121412Z 19008KT 26/14 A3007 RMK A01 T02600138  RH  047%=      5-min Rain = 0
KHO1 121413Z 19007KT 26/14 A3007 RMK A01 T02590137  RH  047%=      5-min Rain = 0
KHO1 121414Z 20007KT 26/14 A3007 RMK A01 T02590137  RH  047%=      5-min Rain = 0
KHO1 121415Z 19007KT 26/14 A3007 RMK A01 T02590137  RH  047%=      5-min Rain = 0
KHO1 121416Z 19007KT 26/14 A3007 RMK A01 T02590138  RH  047%=      5-min Rain = 0
KHO1 121417Z 19007KT 26/14 A3007 RMK A01 T02610139  RH  047%=      5-min Rain = 0
KHO1 121418Z 20007KT 26/14 A3007 RMK A01 T02630140  RH  047%=      5-min Rain = 0
KHO1 121419Z 21008KT 26/14 A3007 RMK A01 T02630139  RH  046%=      5-min Rain = 0
KHO1 121420Z 20006KT 26/14 A3007 RMK A01 T02630140  RH  046%=      5-min Rain = 0
KHO1 121421Z 19007KT 26/14 A3007 RMK A01 T02640139  RH  046%=      5-min Rain = 0
KHO1 121422Z 18007KT 26/14 A3007 RMK A01 T02630139  RH  046%=      5-min Rain = 0
KHO1 121423Z 18006KT 26/14 A3007 RMK A01 T02640140  RH  046%=      5-min Rain = 0
KHO1 121424Z 18007KT 26/14 A3007 RMK A01 T02640139  RH  046%=      5-min Rain = 0
KHO1 121425Z 19008KT 26/14 A3006 RMK A01 T02630140  RH  047%=      5-min Rain = 0
KHO1 121426Z 20006KT 26/14 A3006 RMK A01 T02630140  RH  047%=      5-min Rain = 0
KHO1 121427Z 21006KT 26/14 A3007 RMK A01 T02640142  RH  047%=      5-min Rain = 0
KHO1 121428Z 21005KT 27/14 A3006 RMK A01 T02660144  RH  047%=      5-min Rain = 0
KHO1 121429Z 18007KT 27/14 A3007 RMK A01 T02680142  RH  046%=      5-min Rain = 0
KHO1 121430Z 19007KT 27/14 A3007 RMK A01 T02680141  RH  046%=      5-min Rain = 0
KHO1 121431Z 19008KT 27/14 A3007 RMK A01 T02680140  RH  045%=      5-min Rain = 0
KHO1 121432Z 19007KT 27/14 A3007 RMK A01 T02690139  RH  045%=      5-min Rain = 0
KHO1 121433Z 18007KT 27/14 A3007 RMK A01 T02700139  RH  044%=      5-min Rain = 0
KHO1 121434Z 18007KT 27/14 A3007 RMK A01 T02690138  RH  044%=      5-min Rain = 0
KHO1 121435Z 18007KT 27/14 A3007 RMK A01 T02690138  RH  045%=      5-min Rain = 0
KHO1 121436Z 19007KT 27/14 A3007 RMK A01 T02680139  RH  045%=      5-min Rain = 0
KHO1 121437Z 20006KT 27/14 A3007 RMK A01 T02690139  RH  045%=      5-min Rain = 0
KHO1 121438Z 18007KT 27/14 A3007 RMK A01 T02720141  RH  044%=      5-min Rain = 0
KHO1 121439Z 19008KT 27/14 A3007 RMK A01 T02720140  RH  044%=      5-min Rain = 0
KHO1 121440Z 18006KT 27/14 A3007 RMK A01 T02700140  RH  045%=      5-min Rain = 0
KHO1 121441Z 20006KT 27/14 A3007 RMK A01 T02700141  RH  045%=      5-min Rain = 0
KHO1 121442Z 20008KT 27/14 A3007 RMK A01 T02720143  RH  045%=      5-min Rain = 0
KHO1 121443Z 19006KT 27/14 A3007 RMK A01 T02730143  RH  045%=      5-min Rain = 0
KHO1 121444Z 19007KT 27/14 A3007 RMK A01 T02730143  RH  045%=      5-min Rain = 0
KHO1 121445Z 19006KT 27/14 A3007 RMK A01 T02730143  RH  045%=      5-min Rain = 0
KHO1 121446Z 18005KT 27/14 A3007 RMK A01 T02740144  RH  045%=      5-min Rain = 0
KHO1 121447Z 20005KT 28/14 A3007 RMK A01 T02760144  RH  044%=      5-min Rain = 0
KHO1 121448Z 19006KT 28/14 A3007 RMK A01 T02780144  RH  044%=      5-min Rain = 0
KHO1 121449Z 18006KT 28/14 A3007 RMK A01 T02770143  RH  044%=      5-min Rain = 0
KHO1 121450Z 19007KT 28/14 A3007 RMK A01 T02760142  RH  044%=      5-min Rain = 0
KHO1 121451Z 21007KT 28/14 A3007 RMK A01 T02760142  RH  044%=      5-min Rain = 0
KHO1 121452Z 18007KT 28/14 A3007 RMK A01 T02770143  RH  044%=      5-min Rain = 0
KHO1 121453Z 20008KT 28/14 A3007 RMK A01 T02780143  RH  044%=      5-min Rain = 0
KHO1 121454Z 20006KT 28/14 A3007 RMK A01 T02780143  RH  044%=      5-min Rain = 0
KHO1 121455Z 19006KT 28/14 A3007 RMK A01 T02800144  RH  043%=      5-min Rain = 0
KHO1 121456Z 18007KT 28/14 A3007 RMK A01 T02800143  RH  043%=      5-min Rain = 0
KHO1 121457Z 18008KT 28/14 A3007 RMK A01 T02790143  RH  043%=      5-min Rain = 0
KHO1 121458Z 18005KT 28/14 A3007 RMK A01 T02800143  RH  043%=      5-min Rain = 0
KHO1 121459Z 19008KT 28/14 A3007 RMK A01 T02800143  RH  043%=      5-min Rain = 0
KHO1 121500Z 20007KT 28/14 A3007 RMK A01 T02810142  RH  043%=      5-min Rain = 0
KHO1 121501Z 20006KT 28/14 A3007 RMK A01 T02800144  RH  043%=      5-min Rain = 0
KHO1 121502Z 18006KT 28/14 A3007 RMK A01 T02820144  RH  043%=      5-min Rain = 0
KHO1 121503Z 17008KT 28/14 A3007 RMK A01 T02810143  RH  043%=      5-min Rain = 0
KHO1 121504Z 17007KT 28/14 A3007 RMK A01 T02810143  RH  043%=      5-min Rain = 0
KHO1 121505Z 18007KT 28/14 A3007 RMK A01 T02810144  RH  043%=      5-min Rain = 0
KHO1 121506Z 19008KT 28/14 A3007 RMK A01 T02820144  RH  043%=      5-min Rain = 0
KHO1 121507Z 20006KT 28/14 A3007 RMK A01 T02820142  RH  042%=      5-min Rain = 0
KHO1 121508Z 21008KT 28/14 A3007 RMK A01 T02830141  RH  042%=      5-min Rain = 0
KHO1 121509Z 20007KT 29/14 A3007 RMK A01 T02850143  RH  042%=      5-min Rain = 0
KHO1 121510Z 18005KT 29/14 A3007 RMK A01 T02860141  RH  041%=      5-min Rain = 0
KHO1 121511Z 18005KT 29/14 A3007 RMK A01 T02860140  RH  041%=      5-min Rain = 0
KHO1 121512Z 18008KT 29/14 A3007 RMK A01 T02860141  RH  041%=      5-min Rain = 0
KHO1 121513Z 17006KT 29/14 A3007 RMK A01 T02870141  RH  041%=      5-min Rain = 0
KHO1 121514Z 19008KT 29/14 A3007 RMK A01 T02860141  RH  041%=      5-min Rain = 0
KHO1 121515Z 20006KT 29/14 A3007 RMK A01 T02860143  RH  041%=      5-min Rain = 0
KHO1 121516Z 19006KT 29/14 A3007 RMK A01 T02870140  RH  041%=      5-min Rain = 0
KHO1 121517Z 20004KT 28/14 A3007 RMK A01 T02840140  RH  041%=      5-min Rain = 0
KHO1 121518Z 20006KT 28/14 A3007 RMK A01 T02840141  RH  042%=      5-min Rain = 0
KHO1 121519Z 18006KT 29/14 A3007 RMK A01 T02860143  RH  042%=      5-min Rain = 0
KHO1 121520Z 19006KT 29/14 A3007 RMK A01 T02890142  RH  041%=      5-min Rain = 0
KHO1 121521Z 21006KT 29/14 A3007 RMK A01 T02890141  RH  040%=      5-min Rain = 0
KHO1 121522Z 21006KT 29/14 A3007 RMK A01 T02910138  RH  039%=      5-min Rain = 0
KHO1 121523Z 20005KT 29/14 A3007 RMK A01 T02940143  RH  040%=      5-min Rain = 0
KHO1 121524Z 20008KT 29/14 A3007 RMK A01 T02940138  RH  038%=      5-min Rain = 0
KHO1 121525Z 19007KT 29/14 A3007 RMK A01 T02930137  RH  038%=      5-min Rain = 0
KHO1 121526Z 21006KT 30/14 A3007 RMK A01 T02950140  RH  039%=      5-min Rain = 0
KHO1 121527Z 22008KT 30/14 A3007 RMK A01 T02960135  RH  037%=      5-min Rain = 0
KHO1 121528Z 22006KT 30/14 A3007 RMK A01 T02950137  RH  038%=      5-min Rain = 0
KHO1 121529Z 21009KT 30/14 A3007 RMK A01 T02970139  RH  038%=      5-min Rain = 0
KHO1 121530Z 23008KT 30/14 A3007 RMK A01 T02970135  RH  037%=      5-min Rain = 0
KHO1 121531Z 22006KT 30/14 A3007 RMK A01 T02970135  RH  037%=      5-min Rain = 0
KHO1 121532Z 22008KT 30/14 A3007 RMK A01 T02970136  RH  037%=      5-min Rain = 0
KHO1 121533Z 21008KT 30/14 A3007 RMK A01 T02980137  RH  037%=      5-min Rain = 0
KHO1 121534Z 21007KT 30/13 A3007 RMK A01 T02970134  RH  037%=      5-min Rain = 0
KHO1 121535Z 20009KT 30/14 A3007 RMK A01 T02970138  RH  038%=      5-min Rain = 0
KHO1 121536Z 22009KT 30/14 A3007 RMK A01 T02960138  RH  038%=      5-min Rain = 0
KHO1 121537Z 26005KT 30/14 A3007 RMK A01 T02950138  RH  038%=      5-min Rain = 0
KHO1 121538Z 22005KT 30/14 A3007 RMK A01 T02970140  RH  038%=      5-min Rain = 0
KHO1 121539Z 22006KT 30/14 A3007 RMK A01 T02990139  RH  037%=      5-min Rain = 0
KHO1 121540Z 22007KT 30/14 A3007 RMK A01 T02990139  RH  038%=      5-min Rain = 0
KHO1 121541Z 21006KT 30/14 A3007 RMK A01 T03000140  RH  038%=      5-min Rain = 0
KHO1 121542Z 21006KT 30/14 A3007 RMK A01 T03020142  RH  038%=      5-min Rain = 0
KHO1 121543Z 20007KT 31/14 A3007 RMK A01 T03060139  RH  036%=      5-min Rain = 0
KHO1 121544Z 20007KT 30/14 A3007 RMK A01 T03040138  RH  036%=      5-min Rain = 0
KHO1 121545Z 21010KT 30/14 A3007 RMK A01 T03040136  RH  036%=      5-min Rain = 0
KHO1 121546Z 23009KT 30/13 A3007 RMK A01 T03040131  RH  035%=      5-min Rain = 0
KHO1 121547Z 24007KT 30/14 A3007 RMK A01 T03040135  RH  036%=      5-min Rain = 0
KHO1 121548Z 19005KT 31/14 A3007 RMK A01 T03070138  RH  036%=      5-min Rain = 0
KHO1 121549Z 22005G10KT 31/13 A3007 RMK A01 T03060134  RH  035%=      5-min Rain = 0
KHO1 121550Z 25006KT 31/13 A3007 RMK A01 T03050126  RH  033%=      5-min Rain = 0
KHO1 121551Z 24006KT 31/13 A3007 RMK A01 T03060127  RH  033%=      5-min Rain = 0
KHO1 121552Z 21007KT 31/13 A3007 RMK A01 T03080128  RH  033%=      5-min Rain = 0
KHO1 121553Z 21009KT 31/13 A3007 RMK A01 T03090127  RH  033%=      5-min Rain = 0
KHO1 121554Z 23006KT 31/13 A3007 RMK A01 T03080126  RH  033%=      5-min Rain = 0
KHO1 121555Z 23007KT 31/13 A3007 RMK A01 T03070126  RH  033%=      5-min Rain = 0
KHO1 121556Z 21009KT 31/13 A3007 RMK A01 T03090127  RH  033%=      5-min Rain = 0
KHO1 121557Z 21007KT 31/13 A3007 RMK A01 T03100127  RH  033%=      5-min Rain = 0
KHO1 121558Z 23010KT 31/13 A3007 RMK A01 T03100125  RH  032%=      5-min Rain = 0
KHO1 121559Z 25006G12KT 31/12 A3007 RMK A01 T03110122  RH  032%=      5-min Rain = 0
KHO1 121600Z 23009KT 31/12 A3007 RMK A01 T03120124  RH  032%=      5-min Rain = 0
KHO1 121601Z 23007KT 31/12 A3007 RMK A01 T03140123  RH  031%=      5-min Rain = 0
KHO1 121602Z 25007KT 32/12 A3007 RMK A01 T03150120  RH  030%=      5-min Rain = 0
KHO1 121603Z 24009KT 31/12 A3007 RMK A01 T03130121  RH  031%=      5-min Rain = 0
KHO1 121604Z 25007KT 31/12 A3007 RMK A01 T03110121  RH  031%=      5-min Rain = 0
KHO1 121605Z 24006KT 31/12 A3007 RMK A01 T03100122  RH  032%=      5-min Rain = 0
KHO1 121606Z 23005KT 31/12 A3007 RMK A01 T03100122  RH  032%=      5-min Rain = 0
KHO1 121607Z 23004KT 31/12 A3007 RMK A01 T03120124  RH  032%=      5-min Rain = 0
KHO1 121608Z 20007G14KT 32/12 A3007 RMK A01 T03150124  RH  031%=      5-min Rain = 0
KHO1 121609Z 22010KT 32/12 A3007 RMK A01 T03180121  RH  030%=      5-min Rain = 0
KHO1 121610Z 21008KT 32/12 A3007 RMK A01 T03190121  RH  030%=      5-min Rain = 0
KHO1 121611Z 21008KT 32/12 A3007 RMK A01 T03210119  RH  029%=      5-min Rain = 0
KHO1 121612Z 21008KT 32/12 A3007 RMK A01 T03200118  RH  029%=      5-min Rain = 0
KHO1 121613Z 23008KT 32/12 A3007 RMK A01 T03200119  RH  029%=      5-min Rain = 0
KHO1 121614Z 24006KT 32/12 A3007 RMK A01 T03240119  RH  029%=      5-min Rain = 0
KHO1 121615Z 20005KT 32/12 A3007 RMK A01 T03220117  RH  029%=      5-min Rain = 0
KHO1 121616Z 27006KT 32/12 A3006 RMK A01 T03210117  RH  029%=      5-min Rain = 0
KHO1 121617Z 26007KT 32/12 A3007 RMK A01 T03210116  RH  029%=      5-min Rain = 0
KHO1 121618Z 24006KT 32/12 A3007 RMK A01 T03200116  RH  029%=      5-min Rain = 0
KHO1 121619Z 24006KT 32/12 A3007 RMK A01 T03200117  RH  029%=      5-min Rain = 0
KHO1 121620Z 23006KT 32/12 A3007 RMK A01 T03210117  RH  029%=      5-min Rain = 0
KHO1 121621Z 26007KT 32/12 A3006 RMK A01 T03240118  RH  028%=      5-min Rain = 0
KHO1 121622Z 24008G13KT 33/12 A3007 RMK A01 T03270117  RH  028%=      5-min Rain = 0
KHO1 121623Z 22008KT 33/12 A3007 RMK A01 T03250116  RH  028%=      5-min Rain = 0
KHO1 121624Z 20006KT 32/11 A3006 RMK A01 T03230114  RH  028%=      5-min Rain = 0
KHO1 121625Z 22007KT 32/12 A3006 RMK A01 T03210115  RH  028%=      5-min Rain = 0
KHO1 121626Z 22008KT 32/12 A3006 RMK A01 T03210115  RH  028%=      5-min Rain = 0
KHO1 121627Z 23006KT 32/11 A3006 RMK A01 T03200114  RH  028%=      5-min Rain = 0
KHO1 121628Z 21004KT 32/12 A3006 RMK A01 T03230116  RH  028%=      5-min Rain = 0
KHO1 121629Z 23007KT 33/12 A3006 RMK A01 T03250116  RH  028%=      5-min Rain = 0
KHO1 121630Z 25007KT 32/11 A3006 RMK A01 T03240114  RH  028%=      5-min Rain = 0
KHO1 121631Z 25005KT 32/11 A3006 RMK A01 T03210113  RH  028%=      5-min Rain = 0
KHO1 121632Z 28004KT 32/11 A3006 RMK A01 T03210114  RH  028%=      5-min Rain = 0
KHO1 121633Z 27004KT 32/11 A3006 RMK A01 T03220114  RH  028%=      5-min Rain = 0
KHO1 121634Z 25006KT 32/11 A3006 RMK A01 T03240114  RH  028%=      5-min Rain = 0
KHO1 121635Z 26009KT 33/11 A3006 RMK A01 T03260113  RH  027%=      5-min Rain = 0
KHO1 121636Z 25010KT 33/11 A3006 RMK A01 T03280114  RH  027%=      5-min Rain = 0
KHO1 121637Z 24009KT 33/11 A3007 RMK A01 T03310112  RH  026%=      5-min Rain = 0
KHO1 121638Z 24005KT 33/11 A3006 RMK A01 T03260110  RH  027%=      5-min Rain = 0
KHO1 121639Z 25009KT 33/11 A3006 RMK A01 T03260111  RH  027%=      5-min Rain = 0
KHO1 121640Z 27009KT 33/11 A3006 RMK A01 T03270111  RH  027%=      5-min Rain = 0
KHO1 121641Z 26010KT 33/11 A3006 RMK A01 T03280111  RH  026%=      5-min Rain = 0
KHO1 121642Z 26009KT 33/11 A3006 RMK A01 T03260111  RH  027%=      5-min Rain = 0
KHO1 121643Z 25007KT 33/11 A3006 RMK A01 T03250112  RH  027%=      5-min Rain = 0
KHO1 121644Z 25003KT 33/11 A3006 RMK A01 T03260111  RH  027%=      5-min Rain = 0
KHO1 121645Z 26007KT 33/11 A3006 RMK A01 T03270111  RH  027%=      5-min Rain = 0
KHO1 121646Z 31007KT 33/11 A3006 RMK A01 T03280113  RH  027%=      5-min Rain = 0
KHO1 121647Z 31005KT 33/11 A3006 RMK A01 T03290114  RH  027%=      5-min Rain = 0
KHO1 121648Z 27008KT 33/12 A3006 RMK A01 T03300115  RH  027%=      5-min Rain = 0
KHO1 121649Z 26010KT 33/11 A3006 RMK A01 T03300112  RH  026%=      5-min Rain = 0
KHO1 121650Z 26010KT 33/11 A3006 RMK A01 T03280114  RH  027%=      5-min Rain = 0
KHO1 121651Z 26009KT 33/11 A3006 RMK A01 T03290113  RH  027%=      5-min Rain = 0
KHO1 121652Z 26004KT 33/11 A3006 RMK A01 T03260112  RH  027%=      5-min Rain = 0
KHO1 121653Z 26008KT 33/11 A3006 RMK A01 T03250113  RH  027%=      5-min Rain = 0
KHO1 121654Z 27009KT 33/11 A3006 RMK A01 T03270113  RH  027%=      5-min Rain = 0
KHO1 121655Z 29010KT 33/11 A3006 RMK A01 T03260113  RH  027%=      5-min Rain = 0
KHO1 121656Z 27009KT 33/11 A3006 RMK A01 T03270114  RH  027%=      5-min Rain = 0
KHO1 121657Z 28008KT 33/11 A3006 RMK A01 T03260114  RH  027%=      5-min Rain = 0
KHO1 121658Z 27007KT 33/11 A3006 RMK A01 T03260114  RH  027%=      5-min Rain = 0
KHO1 121659Z 27007KT 32/11 A3006 RMK A01 T03240113  RH  027%=      5-min Rain = 0
KHO1 121700Z 27006KT 33/11 A3006 RMK A01 T03250113  RH  027%=      5-min Rain = 0
KHO1 121701Z 25008KT 33/11 A3006 RMK A01 T03270114  RH  027%=      5-min Rain = 0
KHO1 121702Z 25009KT 33/11 A3006 RMK A01 T03300114  RH  027%=      5-min Rain = 0
KHO1 121703Z 24009KT 33/11 A3006 RMK A01 T03300112  RH  026%=      5-min Rain = 0
KHO1 121704Z 22008KT 33/11 A3006 RMK A01 T03270112  RH  027%=      5-min Rain = 0
KHO1 121705Z 22009KT 33/11 A3006 RMK A01 T03260111  RH  027%=      5-min Rain = 0
KHO1 121706Z 22007KT 32/11 A3006 RMK A01 T03240111  RH  027%=      5-min Rain = 0
KHO1 121707Z 23005KT 32/11 A3006 RMK A01 T03240112  RH  027%=      5-min Rain = 0
KHO1 121708Z 23003KT 33/11 A3006 RMK A01 T03260112  RH  027%=      5-min Rain = 0
KHO1 121709Z 27003KT 33/11 A3006 RMK A01 T03260112  RH  027%=      5-min Rain = 0
KHO1 121710Z 26004KT 33/11 A3006 RMK A01 T03270113  RH  027%=      5-min Rain = 0
KHO1 121711Z 28006KT 33/11 A3006 RMK A01 T03290113  RH  027%=      5-min Rain = 0
KHO1 121712Z 30007KT 33/11 A3006 RMK A01 T03310114  RH  027%=      5-min Rain = 0
KHO1 121713Z 26010KT 33/11 A3006 RMK A01 T03330112  RH  026%=      5-min Rain = 0
KHO1 121714Z 25010KT 33/11 A3006 RMK A01 T03310110  RH  026%=      5-min Rain = 0
KHO1 121715Z 25008KT 33/11 A3006 RMK A01 T03290111  RH  026%=      5-min Rain = 0
KHO1 121716Z 25006KT 33/11 A3006 RMK A01 T03290110  RH  026%=      5-min Rain = 0
KHO1 121717Z 25006KT 33/11 A3006 RMK A01 T03280111  RH  027%=      5-min Rain = 0
KHO1 121718Z 25006KT 33/11 A3006 RMK A01 T03300111  RH  026%=      5-min Rain = 0
KHO1 121719Z 25004KT 33/11 A3006 RMK A01 T03280110  RH  026%=      5-min Rain = 0
KHO1 121720Z 28004KT 33/11 A3006 RMK A01 T03300113  RH  027%=      5-min Rain = 0
KHO1 121721Z 27004KT 33/11 A3006 RMK A01 T03310111  RH  026%=      5-min Rain = 0
KHO1 121722Z 28007KT 33/11 A3006 RMK A01 T03310112  RH  026%=      5-min Rain = 0
KHO1 121723Z 29007KT 33/11 A3006 RMK A01 T03320112  RH  026%=      5-min Rain = 0
KHO1 121724Z 21007KT 33/11 A3006 RMK A01 T03330112  RH  026%=      5-min Rain = 0
KHO1 121725Z 20008KT 33/11 A3006 RMK A01 T03340111  RH  026%=      5-min Rain = 0
KHO1 121726Z 22007KT 33/11 A3006 RMK A01 T03320111  RH  026%=      5-min Rain = 0
KHO1 121727Z 23005KT 34/11 A3006 RMK A01 T03350112  RH  026%=      5-min Rain = 0
KHO1 121728Z 23009G16KT 34/11 A3005 RMK A01 T03360110  RH  025%=      5-min Rain = 0
KHO1 121729Z 24012KT 34/11 A3006 RMK A01 T03390109  RH  025%=      5-min Rain = 0
KHO1 121730Z 24010KT 34/11 A3006 RMK A01 T03400107  RH  024%=      5-min Rain = 0
KHO1 121731Z 23011KT 34/11 A3006 RMK A01 T03350106  RH  025%=      5-min Rain = 0
KHO1 121732Z 24010KT 33/11 A3006 RMK A01 T03340107  RH  025%=      5-min Rain = 0
KHO1 121733Z 24010KT 33/11 A3006 RMK A01 T03340106  RH  025%=      5-min Rain = 0
KHO1 121734Z 23009KT 33/11 A3006 RMK A01 T03330106  RH  025%=      5-min Rain = 0
KHO1 121735Z 23009KT 33/11 A3006 RMK A01 T03310108  RH  025%=      5-min Rain = 0
KHO1 121736Z 22009KT 33/11 A3005 RMK A01 T03320108  RH  026%=      5-min Rain = 0
KHO1 121737Z 23006KT 33/11 A3005 RMK A01 T03320108  RH  026%=      5-min Rain = 0
KHO1 121738Z 21007KT 33/11 A3005 RMK A01 T03340109  RH  025%=      5-min Rain = 0
KHO1 121739Z 22008KT 33/11 A3005 RMK A01 T03340109  RH  025%=      5-min Rain = 0
KHO1 121740Z 23012KT 34/11 A3005 RMK A01 T03360110  RH  025%=      5-min Rain = 0
KHO1 121741Z 26012KT 34/11 A3005 RMK A01 T03410109  RH  024%=      5-min Rain = 0
KHO1 121742Z 24012KT 34/11 A3005 RMK A01 T03420109  RH  024%=      5-min Rain = 0
KHO1 121743Z 25010G16KT 34/11 A3005 RMK A01 T03390107  RH  024%=      5-min Rain = 0
KHO1 121744Z 24009KT 34/11 A3005 RMK A01 T03380108  RH  025%=      5-min Rain = 0
KHO1 121745Z 25011KT 34/11 A3005 RMK A01 T03370107  RH  024%=      5-min Rain = 0
KHO1 121746Z 26007KT 34/11 A3005 RMK A01 T03350106  RH  025%=      5-min Rain = 0
KHO1 121747Z 28005KT 34/11 A3005 RMK A01 T03350107  RH  025%=      5-min Rain = 0
KHO1 121748Z 25007KT 34/11 A3005 RMK A01 T03380109  RH  025%=      5-min Rain = 0
KHO1 121749Z 27008KT 34/11 A3005 RMK A01 T03410108  RH  024%=      5-min Rain = 0
KHO1 121750Z 27006KT 34/11 A3005 RMK A01 T03420107  RH  024%=      5-min Rain = 0
KHO1 121751Z 28008KT 34/11 A3005 RMK A01 T03420107  RH  024%=      5-min Rain = 0
KHO1 121752Z 27009KT 35/11 A3005 RMK A01 T03450107  RH  024%=      5-min Rain = 0
KHO1 121753Z 27006KT 34/11 A3005 RMK A01 T03420106  RH  024%=      5-min Rain = 0
KHO1 121754Z 28006KT 34/11 A3005 RMK A01 T03430107  RH  024%=      5-min Rain = 0
KHO1 121755Z 26009G14KT 35/11 A3005 RMK A01 T03450107  RH  023%=      5-min Rain = 0
KHO1 121756Z 25011KT 35/11 A3005 RMK A01 T03460105  RH  023%=      5-min Rain = 0
KHO1 121757Z 26010KT 34/10 A3005 RMK A01 T03400102  RH  023%=      5-min Rain = 0
KHO1 121758Z 27011KT 34/10 A3005 RMK A01 T03360102  RH  024%=      5-min Rain = 0
KHO1 121759Z 29009KT 33/10 A3005 RMK A01 T03330102  RH  024%=      5-min Rain = 0
KHO1 121800Z 31007KT 33/10 A3005 RMK A01 T03340103  RH  024%=      5-min Rain = 0
KHO1 121801Z 30009KT 34/11 A3005 RMK A01 T03360105  RH  024%=      5-min Rain = 0
KHO1 121802Z 30007KT 34/10 A3005 RMK A01 T03370104  RH  024%=      5-min Rain = 0
KHO1 121803Z 29008KT 34/10 A3005 RMK A01 T03370104  RH  024%=      5-min Rain = 0
KHO1 121804Z 28007KT 34/11 A3005 RMK A01 T03380105  RH  024%=      5-min Rain = 0
KHO1 121805Z 27010KT 34/10 A3005 RMK A01 T03390104  RH  024%=      5-min Rain = 0
KHO1 121806Z 28007KT 34/11 A3005 RMK A01 T03390105  RH  024%=      5-min Rain = 0
KHO1 121807Z 29006KT 34/11 A3005 RMK A01 T03400106  RH  024%=      5-min Rain = 0
KHO1 121808Z 29008G13KT 34/11 A3005 RMK A01 T03410105  RH  024%=      5-min Rain = 0
KHO1 121809Z 28011KT 34/10 A3005 RMK A01 T03420104  RH  023%=      5-min Rain = 0
KHO1 121810Z 27009KT 34/11 A3005 RMK A01 T03410105  RH  024%=      5-min Rain = 0
KHO1 121811Z 26014KT 34/10 A3005 RMK A01 T03440103  RH  023%=      5-min Rain = 0
KHO1 121812Z 27012KT 35/10 A3005 RMK A01 T03460103  RH  023%=      5-min Rain = 0
KHO1 121813Z 27012KT 35/10 A3005 RMK A01 T03480103  RH  022%=      5-min Rain = 0
KHO1 121814Z 27008KT 35/10 A3005 RMK A01 T03450102  RH  023%=      5-min Rain = 0
KHO1 121815Z 28009KT 34/10 A3005 RMK A01 T03440103  RH  023%=      5-min Rain = 0
KHO1 121816Z 27005KT 34/10 A3005 RMK A01 T03400102  RH  023%=      5-min Rain = 0
KHO1 121817Z 29007KT 34/10 A3004 RMK A01 T03400102  RH  023%=      5-min Rain = 0
KHO1 121818Z 29007KT 34/10 A3004 RMK A01 T03420104  RH  023%=      5-min Rain = 0
KHO1 121819Z 29007KT 34/11 A3004 RMK A01 T03440106  RH  023%=      5-min Rain = 0
KHO1 121820Z 26004KT 35/11 A3004 RMK A01 T03480108  RH  023%=      5-min Rain = 0
KHO1 121821Z 28005KT 35/11 A3004 RMK A01 T03520106  RH  022%=      5-min Rain = 0
KHO1 121822Z 29005KT 35/11 A3004 RMK A01 T03510107  RH  023%=      5-min Rain = 0
KHO1 121823Z 27005KT 35/11 A3004 RMK A01 T03500105  RH  023%=      5-min Rain = 0
KHO1 121824Z 21009KT 35/10 A3004 RMK A01 T03470104  RH  023%=      5-min Rain = 0
KHO1 121825Z 23008KT 35/10 A3004 RMK A01 T03460104  RH  023%=      5-min Rain = 0
KHO1 121826Z 24008KT 35/10 A3004 RMK A01 T03460103  RH  023%=      5-min Rain = 0
KHO1 121827Z 24005KT 34/11 A3004 RMK A01 T03440105  RH  023%=      5-min Rain = 0
KHO1 121828Z 26003KT 34/11 A3004 RMK A01 T03440106  RH  024%=      5-min Rain = 0
KHO1 121829Z 28003KT 35/11 A3004 RMK A01 T03450107  RH  024%=      5-min Rain = 0
KHO1 121830Z 25010G15KT 35/11 A3004 RMK A01 T03450107  RH  024%=      5-min Rain = 0
KHO1 121831Z 25010KT 35/11 A3004 RMK A01 T03460108  RH  024%=      5-min Rain = 0
KHO1 121832Z 26011KT 35/11 A3004 RMK A01 T03450107  RH  024%=      5-min Rain = 0
KHO1 121833Z 27007KT 34/11 A3004 RMK A01 T03440108  RH  024%=      5-min Rain = 0
KHO1 121834Z 27008KT 34/11 A3004 RMK A01 T03440108  RH  024%=      5-min Rain = 0
KHO1 121835Z 26007KT 35/11 A3004 RMK A01 T03450108  RH  024%=      5-min Rain = 0
KHO1 121836Z 26008KT 35/11 A3004 RMK A01 T03470108  RH  023%=      5-min Rain = 0
KHO1 121837Z 23010KT 35/11 A3004 RMK A01 T03460106  RH  023%=      5-min Rain = 0
KHO1 121838Z 25009KT 34/11 A3004 RMK A01 T03440106  RH  024%=      5-min Rain = 0
KHO1 121839Z 26009KT 34/11 A3004 RMK A01 T03440107  RH  024%=      5-min Rain = 0
KHO1 121840Z 26010KT 35/11 A3004 RMK A01 T03470106  RH  023%=      5-min Rain = 0
KHO1 121841Z 25011KT 35/11 A3004 RMK A01 T03480105  RH  023%=      5-min Rain = 0
KHO1 121842Z 25010KT 35/10 A3004 RMK A01 T03490104  RH  023%=      5-min Rain = 0
KHO1 121843Z 26007KT 35/10 A3004 RMK A01 T03490104  RH  023%=      5-min Rain = 0
KHO1 121844Z 26008KT 35/11 A3004 RMK A01 T03510105  RH  022%=      5-min Rain = 0
KHO1 121845Z 28011KT 35/10 A3004 RMK A01 T03520102  RH  022%=      5-min Rain = 0
KHO1 121846Z 29010KT 35/10 A3004 RMK A01 T03490101  RH  022%=      5-min Rain = 0
KHO1 121847Z 29008KT 35/10 A3004 RMK A01 T03460102  RH  023%=      5-min Rain = 0
KHO1 121848Z 26009KT 35/10 A3004 RMK A01 T03460102  RH  023%=      5-min Rain = 0
KHO1 121849Z 25008KT 34/10 A3004 RMK A01 T03420102  RH  023%=      5-min Rain = 0
KHO1 121850Z 28009KT 34/10 A3004 RMK A01 T03420104  RH  023%=      5-min Rain = 0
KHO1 121851Z 26008KT 34/10 A3004 RMK A01 T03440103  RH  023%=      5-min Rain = 0
KHO1 121852Z 25009KT 34/10 A3004 RMK A01 T03420103  RH  023%=      5-min Rain = 0
KHO1 121853Z 24014KT 35/10 A3004 RMK A01 T03460101  RH  022%=      5-min Rain = 0
KHO1 121854Z 23016KT 35/10 A3004 RMK A01 T03470100  RH  022%=      5-min Rain = 0
KHO1 121855Z 23013KT 35/10 A3004 RMK A01 T03450102  RH  023%=      5-min Rain = 0
KHO1 121856Z 22010KT 34/10 A3004 RMK A01 T03440100  RH  023%=      5-min Rain = 0
KHO1 121857Z 22011KT 34/10 A3004 RMK A01 T03430101  RH  023%=      5-min Rain = 0
KHO1 121858Z 21010KT 35/10 A3004 RMK A01 T03460103  RH  023%=      5-min Rain = 0
KHO1 121859Z 25011G17KT 35/10 A3004 RMK A01 T03490102  RH  022%=      5-min Rain = 0
KHO1 121900Z 24011KT 35/10 A3004 RMK A01 T03470100  RH  022%=      5-min Rain = 0
KHO1 121901Z 25006KT 35/10 A3004 RMK A01 T03450102  RH  023%=      5-min Rain = 0
KHO1 121902Z 25008G16KT 35/10 A3004 RMK A01 T03450102  RH  023%=      5-min Rain = 0
KHO1 121903Z 24014KT 35/10 A3004 RMK A01 T03470102  RH  023%=      5-min Rain = 0
KHO1 121904Z 23011KT 35/10 A3004 RMK A01 T03470101  RH  022%=      5-min Rain = 0
KHO1 121905Z 25010KT 35/10 A3004 RMK A01 T03450101  RH  023%=      5-min Rain = 0
KHO1 121906Z 26008KT 35/10 A3004 RMK A01 T03450101  RH  023%=      5-min Rain = 0
KHO1 121907Z 21008KT 35/10 A3004 RMK A01 T03470102  RH  022%=      5-min Rain = 0
KHO1 121908Z 20006KT 35/10 A3004 RMK A01 T03470100  RH  022%=      5-min Rain = 0
KHO1 121909Z 23007KT 35/10 A3004 RMK A01 T03490102  RH  022%=      5-min Rain = 0
KHO1 121910Z 22011KT 35/10 A3004 RMK A01 T03510098  RH  021%=      5-min Rain = 0
KHO1 121911Z 23011KT 35/10 A3004 RMK A01 T03510097  RH  021%=      5-min Rain = 0
KHO1 121912Z 22012KT 35/10 A3004 RMK A01 T03500101  RH  022%=      5-min Rain = 0
KHO1 121913Z 22011KT 35/10 A3004 RMK A01 T03490102  RH  022%=      5-min Rain = 0
KHO1 121914Z 25008KT 35/10 A3004 RMK A01 T03500104  RH  022%=      5-min Rain = 0
KHO1 121915Z 28011KT 36/10 A3004 RMK A01 T03560101  RH  021%=      5-min Rain = 0
KHO1 121916Z 27011KT 36/10 A3004 RMK A01 T03560100  RH  021%=      5-min Rain = 0
KHO1 121917Z 26009KT 35/10 A3004 RMK A01 T03530100  RH  021%=      5-min Rain = 0
KHO1 121918Z 27012KT 35/10 A3004 RMK A01 T03540101  RH  021%=      5-min Rain = 0
KHO1 121919Z 28012KT 35/10 A3004 RMK A01 T03530101  RH  022%=      5-min Rain = 0
KHO1 121920Z 29010KT 35/10 A3004 RMK A01 T03510101  RH  022%=      5-min Rain = 0
KHO1 121921Z 27008KT 35/10 A3004 RMK A01 T03500102  RH  022%=      5-min Rain = 0
KHO1 121922Z 29009KT 35/10 A3003 RMK A01 T03480100  RH  022%=      5-min Rain = 0
KHO1 121923Z 28006KT 35/10 A3003 RMK A01 T03480100  RH  022%=      5-min Rain = 0
KHO1 121924Z 28009KT 35/10 A3003 RMK A01 T03490100  RH  022%=      5-min Rain = 0
KHO1 121925Z 26009KT 35/10 A3003 RMK A01 T03520096  RH  021%=      5-min Rain = 0
KHO1 121926Z 27008KT 35/09 A3003 RMK A01 T03530092  RH  020%=      5-min Rain = 0
KHO1 121927Z 30007KT 36/09 A3003 RMK A01 T03550090  RH  020%=      5-min Rain = 0
KHO1 121928Z 28008KT 36/09 A3003 RMK A01 T03550092  RH  020%=      5-min Rain = 0
KHO1 121929Z 28010KT 36/09 A3003 RMK A01 T03550091  RH  020%=      5-min Rain = 0
KHO1 121930Z 26008KT 35/09 A3003 RMK A01 T03520089  RH  020%=      5-min Rain = 0
KHO1 121931Z 24011KT 35/10 A3004 RMK A01 T03520095  RH  021%=      5-min Rain = 0
KHO1 121932Z 24013KT 35/10 A3004 RMK A01 T03520095  RH  021%=      5-min Rain = 0
KHO1 121933Z 23011KT 35/09 A3003 RMK A01 T03500093  RH  021%=      5-min Rain = 0
KHO1 121934Z 23012KT 35/10 A3003 RMK A01 T03490095  RH  021%=      5-min Rain = 0
KHO1 121935Z 22008KT 35/10 A3003 RMK A01 T03470095  RH  021%=      5-min Rain = 0
KHO1 121936Z 22008KT 35/10 A3003 RMK A01 T03460095  RH  022%=      5-min Rain = 0
KHO1 121937Z 22012G17KT 35/10 A3003 RMK A01 T03490096  RH  021%=      5-min Rain = 0
KHO1 121938Z 21010G15KT 35/09 A3003 RMK A01 T03480093  RH  021%=      5-min Rain = 0
KHO1 121939Z 25002KT 35/09 A3003 RMK A01 T03450093  RH  021%=      5-min Rain = 0
KHO1 121940Z 19001KT 35/09 A3003 RMK A01 T03450093  RH  021%=      5-min Rain = 0
KHO1 121941Z 25003KT 35/10 A3003 RMK A01 T03450095  RH  022%=      5-min Rain = 0
KHO1 121942Z 28010KT 35/09 A3003 RMK A01 T03490090  RH  021%=      5-min Rain = 0
KHO1 121943Z 29010KT 35/08 A3003 RMK A01 T03520082  RH  019%=      5-min Rain = 0
KHO1 121944Z 29009KT 35/08 A3003 RMK A01 T03530079  RH  019%=      5-min Rain = 0
KHO1 121945Z 27012KT 35/09 A3003 RMK A01 T03540085  RH  019%=      5-min Rain = 0
KHO1 121946Z 27009KT 35/09 A3003 RMK A01 T03540086  RH  020%=      5-min Rain = 0
KHO1 121947Z 25009KT 35/09 A3003 RMK A01 T03530085  RH  019%=      5-min Rain = 0
KHO1 121948Z 25004KT 35/09 A3003 RMK A01 T03530086  RH  020%=      5-min Rain = 0
KHO1 121949Z 28008G17KT 35/09 A3003 RMK A01 T03530085  RH  019%=      5-min Rain = 0
KHO1 121950Z 29013KT 35/08 A3003 RMK A01 T03540083  RH  019%=      5-min Rain = 0
KHO1 121951Z 29010KT 36/08 A3003 RMK A01 T03550082  RH  019%=      5-min Rain = 0
KHO1 121952Z 29008KT 35/08 A3003 RMK A01 T03520081  RH  019%=      5-min Rain = 0
KHO1 121953Z 28008KT 35/08 A3003 RMK A01 T03520081  RH  019%=      5-min Rain = 0
KHO1 121954Z 28013KT 36/08 A3003 RMK A01 T03560076  RH  018%=      5-min Rain = 0
KHO1 121955Z 29013KT 36/08 A3003 RMK A01 T03590076  RH  018%=      5-min Rain = 0
KHO1 121956Z 30011KT 36/08 A3003 RMK A01 T03570078  RH  018%=      5-min Rain = 0
KHO1 121957Z 30011KT 36/08 A3003 RMK A01 T03560078  RH  018%=      5-min Rain = 0
KHO1 121958Z 27012KT 36/08 A3003 RMK A01 T03550076  RH  018%=      5-min Rain = 0
KHO1 121959Z 27005G11KT 35/08 A3003 RMK A01 T03500075  RH  018%=      5-min Rain = 0
KHO1 122000Z 28005KT 35/08 A3003 RMK A01 T03500077  RH  019%=      5-min Rain = 0
KHO1 122001Z 28012KT 35/08 A3003 RMK A01 T03530078  RH  018%=      5-min Rain = 0
KHO1 122002Z 29007KT 36/08 A3003 RMK A01 T03550078  RH  018%=      5-min Rain = 0
KHO1 122003Z 30009KT 36/08 A3002 RMK A01 T03550078  RH  018%=      5-min Rain = 0
KHO1 122004Z 28007KT 36/08 A3002 RMK A01 T03570078  RH  018%=      5-min Rain = 0
KHO1 122005Z 27006KT 36/08 A3002 RMK A01 T03590076  RH  018%=      5-min Rain = 0
KHO1 122006Z 27005KT 36/08 A3002 RMK A01 T03570076  RH  018%=      5-min Rain = 0
KHO1 122007Z 28009KT 36/08 A3002 RMK A01 T03590075  RH  018%=      5-min Rain = 0
KHO1 122008Z 29008KT 36/07 A3002 RMK A01 T03610074  RH  017%=      5-min Rain = 0
KHO1 122009Z 28008KT 36/07 A3002 RMK A01 T03610073  RH  017%=      5-min Rain = 0
KHO1 122010Z 28007KT 36/07 A3002 RMK A01 T03570074  RH  018%=      5-min Rain = 0
KHO1 122011Z 29010KT 36/08 A3002 RMK A01 T03550077  RH  018%=      5-min Rain = 0
KHO1 122012Z 31010KT 36/08 A3002 RMK A01 T03580078  RH  018%=      5-min Rain = 0
KHO1 122013Z 30010KT 36/08 A3002 RMK A01 T03600075  RH  017%=      5-min Rain = 0
KHO1 122014Z 29007KT 36/08 A3002 RMK A01 T03570075  RH  018%=      5-min Rain = 0
KHO1 122015Z 32004KT 36/08 A3002 RMK A01 T03550076  RH  018%=      5-min Rain = 0
KHO1 122016Z 29006KT 36/08 A3002 RMK A01 T03550077  RH  018%=      5-min Rain = 0
KHO1 122017Z 30005KT 36/08 A3002 RMK A01 T03570079  RH  018%=      5-min Rain = 0
KHO1 122018Z 32008KT 36/08 A3002 RMK A01 T03600078  RH  018%=      5-min Rain = 0
KHO1 122019Z 34003KT 36/08 A3002 RMK A01 T03580077  RH  018%=      5-min Rain = 0
KHO1 122020Z 01002KT 36/08 A3001 RMK A01 T03560078  RH  018%=      5-min Rain = 0
KHO1 122021Z 34004KT 36/08 A3001 RMK A01 T03570078  RH  018%=      5-min Rain = 0
KHO1 122022Z 33002KT 36/08 A3001 RMK A01 T03560080  RH  018%=      5-min Rain = 0
KHO1 122023Z 30003KT 36/08 A3001 RMK A01 T03570082  RH  019%=      5-min Rain = 0
KHO1 122024Z 27010KT 36/08 A3001 RMK A01 T03600076  RH  018%=      5-min Rain = 0
KHO1 122025Z 28010KT 36/07 A3002 RMK A01 T03590069  RH  017%=      5-min Rain = 0
KHO1 122026Z 30007KT 36/07 A3001 RMK A01 T03570069  RH  017%=      5-min Rain = 0
KHO1 122027Z 29008KT 36/07 A3001 RMK A01 T03580074  RH  017%=      5-min Rain = 0
KHO1 122028Z 26008KT 36/07 A3001 RMK A01 T03610072  RH  017%=      5-min Rain = 0
KHO1 122029Z 27003KT 36/07 A3001 RMK A01 T03580071  RH  017%=      5-min Rain = 0
KHO1 122030Z 26001KT 36/07 A3001 RMK A01 T03560070  RH  017%=      5-min Rain = 0
KHO1 122031Z 28004KT 36/07 A3001 RMK A01 T03580072  RH  017%=      5-min Rain = 0
KHO1 122032Z 30005KT 36/07 A3001 RMK A01 T03590069  RH  017%=      5-min Rain = 0
KHO1 122033Z 26006KT 36/07 A3001 RMK A01 T03580072  RH  017%=      5-min Rain = 0
KHO1 122034Z 22004KT 36/07 A3001 RMK A01 T03560073  RH  018%=      5-min Rain = 0
KHO1 122035Z 23003KT 36/07 A3001 RMK A01 T03580073  RH  017%=      5-min Rain = 0
KHO1 122036Z 26005KT 36/07 A3001 RMK A01 T03590074  RH  017%=      5-min Rain = 0
KHO1 122037Z 30010G17KT 36/07 A3001 RMK A01 T03620071  RH  017%=      5-min Rain = 0
KHO1 122038Z 29010KT 36/07 A3001 RMK A01 T03630067  RH  016%=      5-min Rain = 0
KHO1 122039Z 29006KT 36/07 A3001 RMK A01 T03630068  RH  016%=      5-min Rain = 0
KHO1 122040Z 26005KT 37/07 A3001 RMK A01 T03650067  RH  016%=      5-min Rain = 0
KHO1 122041Z 26005KT 36/07 A3001 RMK A01 T03630067  RH  016%=      5-min Rain = 0
KHO1 122042Z 27011G16KT 36/07 A30 RMK A01 T03640070  RH  016%=      5-min Rain = 0
KHO1 122043Z 25010KT 37/07 A30 RMK A01 T03650069  RH  016%=      5-min Rain = 0
KHO1 122044Z 24010KT 36/07 A30 RMK A01 T03640070  RH  017%=      5-min Rain = 0
KHO1 122045Z 25005KT 36/07 A30 RMK A01 T03620070  RH  017%=      5-min Rain = 0
KHO1 122046Z 24003KT 36/07 A30 RMK A01 T03620070  RH  017%=      5-min Rain = 0
KHO1 122047Z 27008KT 36/07 A30 RMK A01 T03640071  RH  017%=      5-min Rain = 0
KHO1 122048Z 27011KT 37/07 A30 RMK A01 T03650071  RH  017%=      5-min Rain = 0
KHO1 122049Z 28013KT 37/07 A30 RMK A01 T03670069  RH  016%=      5-min Rain = 0
KHO1 122050Z 27008KT 36/07 A30 RMK A01 T03640068  RH  016%=      5-min Rain = 0
KHO1 122051Z 28012KT 36/07 A30 RMK A01 T03640071  RH  017%=      5-min Rain = 0
KHO1 122052Z 28010KT 37/07 A30 RMK A01 T03650070  RH  016%=      5-min Rain = 0
KHO1 122053Z 27006KT 36/07 A30 RMK A01 T03620072  RH  017%=      5-min Rain = 0
KHO1 122054Z 26010KT 36/07 A30 RMK A01 T03640071  RH  017%=      5-min Rain = 0
KHO1 122055Z 28006KT 36/07 A30 RMK A01 T03620074  RH  017%=      5-min Rain = 0
KHO1 122056Z 26011KT 36/07 A30 RMK A01 T03630074  RH  017%=      5-min Rain = 0
KHO1 122057Z 24012KT 37/07 A30 RMK A01 T03670074  RH  017%=      5-min Rain = 0
KHO1 122058Z 24011KT 37/07 A30 RMK A01 T03670073  RH  017%=      5-min Rain = 0
KHO1 122059Z 23011KT 37/07 A30 RMK A01 T03670072  RH  016%=      5-min Rain = 0
KHO1 122100Z 24011KT 36/07 A30 RMK A01 T03640073  RH  017%=      5-min Rain = 0
KHO1 122101Z 27010KT 37/08 A30 RMK A01 T03670077  RH  017%=      5-min Rain = 0
KHO1 122102Z 29008KT 37/08 A30 RMK A01 T03690078  RH  017%=      5-min Rain = 0
KHO1 122103Z 28012KT 37/08 A30 RMK A01 T03690076  RH  017%=      5-min Rain = 0
KHO1 122104Z 26009KT 37/08 A30 RMK A01 T03650076  RH  017%=      5-min Rain = 0
KHO1 122105Z 26010KT 37/08 A30 RMK A01 T03650078  RH  017%=      5-min Rain = 0
KHO1 122106Z 29012KT 37/08 A30 RMK A01 T03690078  RH  017%=      5-min Rain = 0
KHO1 122107Z 30010KT 37/08 A30 RMK A01 T03680077  RH  017%=      5-min Rain = 0
KHO1 122108Z 29006KT 37/08 A30 RMK A01 T03660078  RH  017%=      5-min Rain = 0
KHO1 122109Z 30007KT 37/08 A30 RMK A01 T03670077  RH  017%=      5-min Rain = 0
KHO1 122110Z 29004KT 37/08 A30 RMK A01 T03670079  RH  017%=      5-min Rain = 0
KHO1 122111Z 27006KT 37/08 A30 RMK A01 T03700078  RH  017%=      5-min Rain = 0
KHO1 122112Z 30009KT 37/08 A30 RMK A01 T03690076  RH  017%=      5-min Rain = 0
KHO1 122113Z 29008KT 37/08 A2999 RMK A01 T03680077  RH  017%=      5-min Rain = 0
KHO1 122114Z 30009KT 37/08 A2999 RMK A01 T03670078  RH  017%=      5-min Rain = 0
KHO1 122115Z 34009KT 37/08 A2999 RMK A01 T03690077  RH  017%=      5-min Rain = 0
KHO1 122116Z 34009KT 37/08 A2999 RMK A01 T03710078  RH  017%=      5-min Rain = 0
KHO1 122117Z 32007KT 37/08 A2999 RMK A01 T03730078  RH  017%=      5-min Rain = 0
KHO1 122118Z 33006KT 37/08 A2999 RMK A01 T03730078  RH  017%=      5-min Rain = 0
KHO1 122119Z 31008KT 37/08 A2999 RMK A01 T03720081  RH  017%=      5-min Rain = 0
KHO1 122120Z 30008KT 37/08 A2999 RMK A01 T03700080  RH  017%=      5-min Rain = 0
KHO1 122121Z 30007KT 37/08 A2999 RMK A01 T03680081  RH  017%=      5-min Rain = 0
KHO1 122122Z 33008KT 37/08 A2999 RMK A01 T03680081  RH  017%=      5-min Rain = 0
KHO1 122123Z 33011KT 37/08 A2999 RMK A01 T03690081  RH  017%=      5-min Rain = 0
KHO1 122124Z 31009KT 37/08 A2999 RMK A01 T03710083  RH  017%=      5-min Rain = 0
KHO1 122125Z 31009KT 37/08 A2999 RMK A01 T03710081  RH  017%=      5-min Rain = 0
KHO1 122126Z 30008KT 37/08 A2999 RMK A01 T03710084  RH  017%=      5-min Rain = 0
KHO1 122127Z 29011KT 37/08 A2999 RMK A01 T03730078  RH  017%=      5-min Rain = 0
KHO1 122128Z 26010KT 37/08 A2999 RMK A01 T03730076  RH  016%=      5-min Rain = 0
KHO1 122129Z 25010KT 37/08 A2999 RMK A01 T03710076  RH  017%=      5-min Rain = 0
KHO1 122130Z 25009KT 37/08 A2999 RMK A01 T03710077  RH  017%=      5-min Rain = 0
KHO1 122131Z 28008KT 37/08 A2999 RMK A01 T03680078  RH  017%=      5-min Rain = 0
KHO1 122132Z 29009KT 37/08 A2999 RMK A01 T03710079  RH  017%=      5-min Rain = 0
KHO1 122133Z 30008KT 37/08 A2999 RMK A01 T03720080  RH  017%=      5-min Rain = 0
KHO1 122134Z 30008KT 37/08 A2998 RMK A01 T03700081  RH  017%=      5-min Rain = 0
KHO1 122135Z 31009KT 37/08 A2998 RMK A01 T03680084  RH  018%=      5-min Rain = 0
KHO1 122136Z 30006KT 37/08 A2998 RMK A01 T03670083  RH  018%=      5-min Rain = 0
KHO1 122137Z 32005KT 37/09 A2998 RMK A01 T03660085  RH  018%=      5-min Rain = 0
KHO1 122138Z 30004G11KT 37/08 A2998 RMK A01 T03660083  RH  018%=      5-min Rain = 0
KHO1 122139Z 31006KT 36/09 A2998 RMK A01 T03640085  RH  018%=      5-min Rain = 0
KHO1 122140Z 30009KT 37/09 A2998 RMK A01 T03660085  RH  018%=      5-min Rain = 0
KHO1 122141Z 32010KT 37/09 A2998 RMK A01 T03670086  RH  018%=      5-min Rain = 0
KHO1 122142Z 32008KT 37/09 A2998 RMK A01 T03700085  RH  018%=      5-min Rain = 0
KHO1 122143Z 32008KT 37/09 A2998 RMK A01 T03710085  RH  018%=      5-min Rain = 0
KHO1 122144Z 29009KT 37/08 A2998 RMK A01 T03700084  RH  017%=      5-min Rain = 0
KHO1 122145Z 29009KT 37/08 A2998 RMK A01 T03690081  RH  017%=      5-min Rain = 0
KHO1 122146Z 32013KT 37/08 A2998 RMK A01 T03690083  RH  018%=      5-min Rain = 0
KHO1 122147Z 31015KT 37/08 A2998 RMK A01 T03700084  RH  017%=      5-min Rain = 0
KHO1 122148Z 30012KT 37/08 A2998 RMK A01 T03700081  RH  017%=      5-min Rain = 0
KHO1 122149Z 30010KT 37/08 A2998 RMK A01 T03680084  RH  018%=      5-min Rain = 0
KHO1 122150Z 32012KT 37/09 A2998 RMK A01 T03690086  RH  018%=      5-min Rain = 0
KHO1 122151Z 31010KT 37/08 A2998 RMK A01 T03690084  RH  018%=      5-min Rain = 0
KHO1 122152Z 32010KT 37/08 A2998 RMK A01 T03680084  RH  018%=      5-min Rain = 0
KHO1 122153Z 31009KT 37/09 A2998 RMK A01 T03670086  RH  018%=      5-min Rain = 0
KHO1 122154Z 32010KT 37/09 A2997 RMK A01 T03670088  RH  018%=      5-min Rain = 0
KHO1 122155Z 32007KT 37/09 A2998 RMK A01 T03670086  RH  018%=      5-min Rain = 0
KHO1 122156Z 31006KT 37/09 A2998 RMK A01 T03670087  RH  018%=      5-min Rain = 0
KHO1 122157Z 30005KT 37/09 A2998 RMK A01 T03680088  RH  018%=      5-min Rain = 0
KHO1 122158Z 27006KT 37/09 A2998 RMK A01 T03710087  RH  018%=      5-min Rain = 0
KHO1 122159Z 30009KT 37/09 A2997 RMK A01 T03740088  RH  018%=      5-min Rain = 0
KHO1 122200Z 30010KT 38/09 A2998 RMK A01 T03760087  RH  017%=      5-min Rain = 0
KHO1 122201Z 30010KT 37/09 A2997 RMK A01 T03730087  RH  018%=      5-min Rain = 0
KHO1 122202Z 29007KT 37/09 A2998 RMK A01 T03710086  RH  018%=      5-min Rain = 0
KHO1 122203Z 30012KT 37/09 A2997 RMK A01 T03690086  RH  018%=      5-min Rain = 0
KHO1 122204Z 30013KT 37/09 A2997 RMK A01 T03660087  RH  018%=      5-min Rain = 0
KHO1 122205Z 29013KT 37/09 A2998 RMK A01 T03660086  RH  018%=      5-min Rain = 0
KHO1 122206Z 28011KT 37/09 A2998 RMK A01 T03660086  RH  018%=      5-min Rain = 0
KHO1 122207Z 27008KT 37/09 A2997 RMK A01 T03670085  RH  018%=      5-min Rain = 0
KHO1 122208Z 27006KT 37/08 A2997 RMK A01 T03670084  RH  018%=      5-min Rain = 0
KHO1 122209Z 29005KT 37/09 A2997 RMK A01 T03680086  RH  018%=      5-min Rain = 0
KHO1 122210Z 24004KT 37/09 A2997 RMK A01 T03700085  RH  018%=      5-min Rain = 0
KHO1 122211Z 23007KT 37/08 A2997 RMK A01 T03680084  RH  018%=      5-min Rain = 0
KHO1 122212Z 24007KT 37/08 A2997 RMK A01 T03660083  RH  018%=      5-min Rain = 0
KHO1 122213Z 24008KT 37/08 A2997 RMK A01 T03650084  RH  018%=      5-min Rain = 0
KHO1 122214Z 26006KT 36/08 A2997 RMK A01 T03640083  RH  018%=      5-min Rain = 0
KHO1 122215Z 28009KT 36/09 A2997 RMK A01 T03640085  RH  018%=      5-min Rain = 0
KHO1 122216Z 31010KT 37/09 A2997 RMK A01 T03670086  RH  018%=      5-min Rain = 0
KHO1 122217Z 29012KT 37/09 A2997 RMK A01 T03680087  RH  018%=      5-min Rain = 0
KHO1 122218Z 28012KT 37/09 A2997 RMK A01 T03690085  RH  018%=      5-min Rain = 0
KHO1 122219Z 29015KT 37/09 A2997 RMK A01 T03670085  RH  018%=      5-min Rain = 0
KHO1 122220Z 28012KT 37/09 A2997 RMK A01 T03670086  RH  018%=      5-min Rain = 0
KHO1 122221Z 27010KT 37/09 A2997 RMK A01 T03670086  RH  018%=      5-min Rain = 0
KHO1 122222Z 28011KT 37/09 A2997 RMK A01 T03680087  RH  018%=      5-min Rain = 0
KHO1 122223Z 29009KT 37/09 A2997 RMK A01 T03700088  RH  018%=      5-min Rain = 0
KHO1 122224Z 28010KT 37/09 A2997 RMK A01 T03690087  RH  018%=      5-min Rain = 0
KHO1 122225Z 30009KT 37/09 A2997 RMK A01 T03680087  RH  018%=      5-min Rain = 0
KHO1 122226Z 30010KT 37/09 A2997 RMK A01 T03680087  RH  018%=      5-min Rain = 0
KHO1 122227Z 29008KT 37/09 A2997 RMK A01 T03680087  RH  018%=      5-min Rain = 0
KHO1 122228Z 27009KT 37/09 A2997 RMK A01 T03670088  RH  018%=      5-min Rain = 0
KHO1 122229Z 25011KT 37/09 A2997 RMK A01 T03690087  RH  018%=      5-min Rain = 0
KHO1 122230Z 25011KT 37/09 A2997 RMK A01 T03680087  RH  018%=      5-min Rain = 0
KHO1 122231Z 25008KT 37/09 A2997 RMK A01 T03690086  RH  018%=      5-min Rain = 0
KHO1 122232Z 29006KT 37/09 A2997 RMK A01 T03670086  RH  018%=      5-min Rain = 0
KHO1 122233Z 33004KT 37/09 A2997 RMK A01 T03690086  RH  018%=      5-min Rain = 0
KHO1 122234Z 35004KT 37/09 A2996 RMK A01 T03690086  RH  018%=      5-min Rain = 0
KHO1 122235Z 25006KT 37/09 A2997 RMK A01 T03680087  RH  018%=      5-min Rain = 0
KHO1 122236Z 21004KT 37/09 A2997 RMK A01 T03650086  RH  018%=      5-min Rain = 0
KHO1 122237Z 17002KT 36/09 A2996 RMK A01 T03630085  RH  018%=      5-min Rain = 0
KHO1 122238Z 23002KT 36/09 A2996 RMK A01 T03640086  RH  018%=      5-min Rain = 0
KHO1 122239Z 27003KT 37/09 A2996 RMK A01 T03660087  RH  018%=      5-min Rain = 0
KHO1 122240Z 29005KT 37/09 A2996 RMK A01 T03700088  RH  018%=      5-min Rain = 0
KHO1 122241Z 31006KT 37/09 A2996 RMK A01 T03740087  RH  018%=      5-min Rain = 0
KHO1 122242Z 33005KT 37/09 A2996 RMK A01 T03740086  RH  017%=      5-min Rain = 0
KHO1 122243Z 30004KT 37/09 A2996 RMK A01 T03710087  RH  018%=      5-min Rain = 0
KHO1 122244Z 32002KT 37/09 A2996 RMK A01 T03700087  RH  018%=      5-min Rain = 0
KHO1 122245Z 31003KT 37/09 A2996 RMK A01 T03710088  RH  018%=      5-min Rain = 0
KHO1 122246Z 28006G11KT 37/09 A2996 RMK A01 T03730088  RH  018%=      5-min Rain = 0
KHO1 122247Z 30009G14KT 37/09 A2996 RMK A01 T03730085  RH  017%=      5-min Rain = 0
KHO1 122248Z 34010KT 37/09 A2996 RMK A01 T03740087  RH  018%=      5-min Rain = 0
KHO1 122249Z 32007KT 37/09 A2996 RMK A01 T03740085  RH  017%=      5-min Rain = 0
KHO1 122250Z 30009KT 37/08 A2996 RMK A01 T03720084  RH  017%=      5-min Rain = 0
KHO1 122251Z 32009KT 37/08 A2996 RMK A01 T03730082  RH  017%=      5-min Rain = 0
KHO1 122252Z 34005KT 37/08 A2996 RMK A01 T03730081  RH  017%=      5-min Rain = 0
KHO1 122253Z 29007KT 37/08 A2996 RMK A01 T03730083  RH  017%=      5-min Rain = 0
KHO1 122254Z 28010KT 38/08 A2996 RMK A01 T03760078  RH  016%=      5-min Rain = 0
KHO1 122255Z 29010KT 38/08 A2996 RMK A01 T03750077  RH  016%=      5-min Rain = 0
KHO1 122256Z 28007KT 38/08 A2996 RMK A01 T03750077  RH  016%=      5-min Rain = 0
KHO1 122257Z 27010KT 37/08 A2996 RMK A01 T03740076  RH  016%=      5-min Rain = 0
KHO1 122258Z 30009KT 37/08 A2996 RMK A01 T03720077  RH  017%=      5-min Rain = 0
KHO1 122259Z 31006KT 37/08 A2996 RMK A01 T03720078  RH  017%=      5-min Rain = 0
KHO1 122300Z 31005KT 37/08 A2996 RMK A01 T03730078  RH  017%=      5-min Rain = 0
KHO1 122301Z 31006KT 38/08 A2996 RMK A01 T03750079  RH  017%=      5-min Rain = 0
KHO1 122302Z 32008KT 38/08 A2995 RMK A01 T03750079  RH  016%=      5-min Rain = 0
KHO1 122303Z 32007KT 38/08 A2995 RMK A01 T03750078  RH  016%=      5-min Rain = 0
KHO1 122304Z 32007KT 37/08 A2995 RMK A01 T03730078  RH  017%=      5-min Rain = 0
KHO1 122305Z 32005KT 37/08 A2995 RMK A01 T03730079  RH  017%=      5-min Rain = 0
KHO1 122306Z 31007KT 37/08 A2995 RMK A01 T03740080  RH  017%=      5-min Rain = 0
KHO1 122307Z 32008KT 37/08 A2995 RMK A01 T03740081  RH  017%=      5-min Rain = 0
KHO1 122308Z 32008KT 38/08 A2995 RMK A01 T03750078  RH  016%=      5-min Rain = 0
KHO1 122309Z 33005KT 38/08 A2995 RMK A01 T03750078  RH  016%=      5-min Rain = 0
KHO1 122310Z 34005KT 38/08 A2995 RMK A01 T03760078  RH  016%=      5-min Rain = 0
KHO1 122311Z 32005KT 38/08 A2995 RMK A01 T03770078  RH  016%=      5-min Rain = 0
KHO1 122312Z 30005KT 38/08 A2995 RMK A01 T03770079  RH  016%=      5-min Rain = 0
KHO1 122313Z 29005KT 38/08 A2995 RMK A01 T03760078  RH  016%=      5-min Rain = 0
KHO1 122314Z 31006KT 38/08 A2995 RMK A01 T03750077  RH  016%=      5-min Rain = 0
KHO1 122315Z 30005KT 38/08 A2995 RMK A01 T03750077  RH  016%=      5-min Rain = 0
KHO1 122316Z 33003KT 38/08 A2995 RMK A01 T03750077  RH  016%=      5-min Rain = 0
KHO1 122317Z 24004KT 38/08 A2995 RMK A01 T03760077  RH  016%=      5-min Rain = 0
KHO1 122318Z 28004KT 38/07 A2994 RMK A01 T03760074  RH  016%=      5-min Rain = 0
KHO1 122319Z 30011KT 38/07 A2994 RMK A01 T03760073  RH  016%=      5-min Rain = 0
KHO1 122320Z 28010G17KT 38/07 A2994 RMK A01 T03760074  RH  016%=      5-min Rain = 0
KHO1 122321Z 27010KT 38/07 A2994 RMK A01 T03780071  RH  015%=      5-min Rain = 0
KHO1 122322Z 26014G22KT 38/07 A2994 RMK A01 T03780069  RH  015%=      5-min Rain = 0
KHO1 122323Z 34014G20KT 38/08 A2994 RMK A01 T03790076  RH  016%=      5-min Rain = 0
KHO1 122324Z 35011KT 38/07 A2994 RMK A01 T03770074  RH  016%=      5-min Rain = 0
KHO1 122325Z 34009KT 37/07 A2994 RMK A01 T03740074  RH  016%=      5-min Rain = 0
KHO1 122326Z 32011KT 37/07 A2994 RMK A01 T03740074  RH  016%=      5-min Rain = 0
KHO1 122327Z 30011KT 38/07 A2994 RMK A01 T03750072  RH  016%=      5-min Rain = 0
KHO1 122328Z 29011KT 38/06 A2994 RMK A01 T03760064  RH  015%=      5-min Rain = 0
KHO1 122329Z 28012KT 38/06 A2994 RMK A01 T03760063  RH  015%=      5-min Rain = 0
KHO1 122330Z 28013KT 38/06 A2994 RMK A01 T03760064  RH  015%=      5-min Rain = 0
KHO1 122331Z 30010KT 38/06 A2994 RMK A01 T03750064  RH  015%=      5-min Rain = 0
KHO1 122332Z 30006KT 38/07 A2994 RMK A01 T03750065  RH  015%=      5-min Rain = 0
KHO1 122333Z 27009KT 38/06 A2994 RMK A01 T03750064  RH  015%=      5-min Rain = 0
KHO1 122334Z 28010KT 37/06 A2994 RMK A01 T03730064  RH  015%=      5-min Rain = 0
KHO1 122335Z 29010KT 37/06 A2994 RMK A01 T03730064  RH  015%=      5-min Rain = 0
KHO1 122336Z 30010KT 37/07 A2994 RMK A01 T03730065  RH  015%=      5-min Rain = 0
KHO1 122337Z 30009KT 37/06 A2994 RMK A01 T03740064  RH  015%=      5-min Rain = 0
KHO1 122338Z 30008KT 38/07 A2994 RMK A01 T03750065  RH  015%=      5-min Rain = 0
KHO1 122339Z 29007KT 38/07 A2994 RMK A01 T03750066  RH  015%=      5-min Rain = 0
KHO1 122340Z 29008KT 38/07 A2994 RMK A01 T03760066  RH  015%=      5-min Rain = 0
KHO1 122341Z 28009KT 38/06 A2994 RMK A01 T03760064  RH  015%=      5-min Rain = 0
KHO1 122342Z 29009KT 38/07 A2994 RMK A01 T03760065  RH  015%=      5-min Rain = 0
KHO1 122343Z 31009KT 38/07 A2994 RMK A01 T03760065  RH  015%=      5-min Rain = 0
KHO1 122344Z 33008KT 38/07 A2994 RMK A01 T03770065  RH  015%=      5-min Rain = 0
KHO1 122345Z 32006KT 38/07 A2994 RMK A01 T03770065  RH  015%=      5-min Rain = 0
KHO1 122346Z 31005KT 38/07 A2994 RMK A01 T03760065  RH  015%=      5-min Rain = 0
KHO1 122347Z 32006KT 38/06 A2994 RMK A01 T03770064  RH  015%=      5-min Rain = 0
KHO1 122348Z 30007KT 38/06 A2994 RMK A01 T03770060  RH  014%=      5-min Rain = 0
KHO1 122349Z 30008KT 38/06 A2994 RMK A01 T03760062  RH  015%=      5-min Rain = 0
KHO1 122350Z 29007KT 38/06 A2994 RMK A01 T03760064  RH  015%=      5-min Rain = 0
KHO1 122351Z 28007KT 37/06 A2994 RMK A01 T03740063  RH  015%=      5-min Rain = 0
KHO1 122352Z 30007KT 37/06 A2994 RMK A01 T03740063  RH  015%=      5-min Rain = 0
KHO1 122353Z 31010KT 37/06 A2994 RMK A01 T03740058  RH  014%=      5-min Rain = 0
KHO1 122354Z 31010KT 37/05 A2994 RMK A01 T03740050  RH  014%=      5-min Rain = 0
KHO1 122355Z 32009KT 38/05 A2994 RMK A01 T03750051  RH  014%=      5-min Rain = 0
KHO1 122356Z 32011KT 38/05 A2994 RMK A01 T03760051  RH  014%=      5-min Rain = 0
KHO1 122357Z 32015KT 38/05 A2994 RMK A01 T03750048  RH  013%=      5-min Rain = 0
KHO1 122358Z 32015G20KT 38/05 A2994 RMK A01 T03750046  RH  013%=      5-min Rain = 0
KHO1 122359Z 31017KT 37/04 A2994 RMK A01 T03740043  RH  013%=      5-min Rain = 0
KHO1 130000Z 30014KT 37/04 A2994 RMK A01 T03730041  RH  013%=      5-min Rain = 0
KHO1 130001Z 30015KT 37/04 A2994 RMK A01 T03730041  RH  013%=      5-min Rain = 0
KHO1 130002Z 31013KT 37/04 A2994 RMK A01 T03720044  RH  013%=      5-min Rain = 0
KHO1 130003Z 32011KT 37/05 A2994 RMK A01 T03720046  RH  013%=      5-min Rain = 0
KHO1 130004Z 32013KT 37/05 A2994 RMK A01 T03730046  RH  013%=      5-min Rain = 0
KHO1 130005Z 31014KT 37/04 A2994 RMK A01 T03720044  RH  013%=      5-min Rain = 0
KHO1 130006Z 32013KT 37/04 A2994 RMK A01 T03720044  RH  013%=      5-min Rain = 0
KHO1 130007Z 31015KT 37/04 A2994 RMK A01 T03720040  RH  013%=      5-min Rain = 0
KHO1 130008Z 31014KT 37/04 A2994 RMK A01 T03720040  RH  013%=      5-min Rain = 0
KHO1 130009Z 31011KT 37/04 A2994 RMK A01 T03720041  RH  013%=      5-min Rain = 0
KHO1 130010Z 32013KT 37/04 A2994 RMK A01 T03720041  RH  013%=      5-min Rain = 0
KHO1 130011Z 31010KT 37/04 A2994 RMK A01 T03710042  RH  013%=      5-min Rain = 0
KHO1 130012Z 30011KT 37/04 A2994 RMK A01 T03720042  RH  013%=      5-min Rain = 0
KHO1 130013Z 32012KT 37/04 A2994 RMK A01 T03720042  RH  013%=      5-min Rain = 0
KHO1 130014Z 31015KT 37/04 A2994 RMK A01 T03720042  RH  013%=      5-min Rain = 0
KHO1 130015Z 31012KT 37/04 A2994 RMK A01 T03710042  RH  013%=      5-min Rain = 0
KHO1 130016Z 32011KT 37/04 A2994 RMK A01 T03710043  RH  013%=      5-min Rain = 0
KHO1 130017Z 32013KT 37/04 A2994 RMK A01 T03710043  RH  013%=      5-min Rain = 0
KHO1 130018Z 32012KT 37/04 A2994 RMK A01 T03700041  RH  013%=      5-min Rain = 0
KHO1 130019Z 32011G16KT 37/04 A2994 RMK A01 T03700042  RH  013%=      5-min Rain = 0
KHO1 130020Z 31012KT 37/04 A2994 RMK A01 T03690042  RH  013%=      5-min Rain = 0
KHO1 130021Z 32012KT 37/04 A2995 RMK A01 T03680042  RH  013%=      5-min Rain = 0
KHO1 130022Z 33012KT 37/04 A2994 RMK A01 T03680042  RH  013%=      5-min Rain = 0
KHO1 130023Z 32013KT 37/04 A2994 RMK A01 T03670041  RH  013%=      5-min Rain = 0
KHO1 130024Z 33011KT 37/04 A2994 RMK A01 T03660042  RH  013%=      5-min Rain = 0
KHO1 130025Z 33012KT 37/04 A2994 RMK A01 T03670042  RH  013%=      5-min Rain = 0
KHO1 130026Z 32011G16KT 37/04 A2994 RMK A01 T03670040  RH  013%=      5-min Rain = 0
KHO1 130027Z 32012KT 37/04 A2994 RMK A01 T03670041  RH  013%=      5-min Rain = 0
KHO1 130028Z 33011KT 37/04 A2994 RMK A01 T03660042  RH  013%=      5-min Rain = 0
KHO1 130029Z 32012KT 37/04 A2994 RMK A01 T03650042  RH  013%=      5-min Rain = 0
KHO1 130030Z 32011KT 37/04 A2994 RMK A01 T03650044  RH  014%=      5-min Rain = 0
KHO1 130031Z 32011G16KT 36/05 A2994 RMK A01 T03640045  RH  014%=      5-min Rain = 0
KHO1 130032Z 32014KT 36/05 A2994 RMK A01 T03640045  RH  014%=      5-min Rain = 0
KHO1 130033Z 32012KT 36/04 A2994 RMK A01 T03630044  RH  014%=      5-min Rain = 0
KHO1 130034Z 32012KT 36/04 A2994 RMK A01 T03630043  RH  014%=      5-min Rain = 0
KHO1 130035Z 32013KT 36/04 A2994 RMK A01 T03640043  RH  014%=      5-min Rain = 0
KHO1 130036Z 32014KT 36/04 A2994 RMK A01 T03630043  RH  014%=      5-min Rain = 0
KHO1 130037Z 32013KT 36/04 A2994 RMK A01 T03630043  RH  014%=      5-min Rain = 0
KHO1 130038Z 31011KT 36/04 A2995 RMK A01 T03620044  RH  014%=      5-min Rain = 0
KHO1 130039Z 31011KT 36/05 A2995 RMK A01 T03630046  RH  014%=      5-min Rain = 0
KHO1 130040Z 32010KT 36/05 A2995 RMK A01 T03630047  RH  014%=      5-min Rain = 0
KHO1 130041Z 31010KT 36/05 A2995 RMK A01 T03630049  RH  014%=      5-min Rain = 0
KHO1 130042Z 31010KT 36/05 A2995 RMK A01 T03630049  RH  014%=      5-min Rain = 0
KHO1 130043Z 31011KT 36/05 A2995 RMK A01 T03630048  RH  014%=      5-min Rain = 0
KHO1 130044Z 30010KT 36/05 A2995 RMK A01 T03630048  RH  014%=      5-min Rain = 0
KHO1 130045Z 31010KT 36/05 A2995 RMK A01 T03620047  RH  014%=      5-min Rain = 0
KHO1 130046Z 31010KT 36/05 A2995 RMK A01 T03620047  RH  014%=      5-min Rain = 0
KHO1 130047Z 32011KT 36/05 A2995 RMK A01 T03620048  RH  014%=      5-min Rain = 0
KHO1 130048Z 32011KT 36/05 A2995 RMK A01 T03620049  RH  014%=      5-min Rain = 0
KHO1 130049Z 32012KT 36/05 A2995 RMK A01 T03610050  RH  015%=      5-min Rain = 0
KHO1 130050Z 32010KT 36/05 A2995 RMK A01 T03610051  RH  015%=      5-min Rain = 0
KHO1 130051Z 32011KT 36/05 A2995 RMK A01 T03600051  RH  015%=      5-min Rain = 0
KHO1 130052Z 32010KT 36/05 A2995 RMK A01 T03600052  RH  015%=      5-min Rain = 0
KHO1 130053Z 32011KT 36/05 A2995 RMK A01 T03600050  RH  015%=      5-min Rain = 0
KHO1 130054Z 32011KT 36/05 A2995 RMK A01 T03590049  RH  015%=      5-min Rain = 0
KHO1 130055Z 32010KT 36/05 A2995 RMK A01 T03590048  RH  015%=      5-min Rain = 0
KHO1 130056Z 32010KT 36/05 A2995 RMK A01 T03590049  RH  015%=      5-min Rain = 0
KHO1 130057Z 32009KT 36/05 A2995 RMK A01 T03590049  RH  015%=      5-min Rain = 0
KHO1 130058Z 31009KT 36/05 A2995 RMK A01 T03600050  RH  015%=      5-min Rain = 0
KHO1 130059Z 30012KT 36/05 A2995 RMK A01 T03590047  RH  014%=      5-min Rain = 0
KHO1 130100Z 31012KT 36/05 A2995 RMK A01 T03590048  RH  015%=      5-min Rain = 0
KHO1 130101Z 32012KT 36/05 A2995 RMK A01 T03580047  RH  015%=      5-min Rain = 0
KHO1 130102Z 32012KT 36/05 A2995 RMK A01 T03580048  RH  015%=      5-min Rain = 0
KHO1 130103Z 32010KT 36/05 A2995 RMK A01 T03580049  RH  015%=      5-min Rain = 0
KHO1 130104Z 31009KT 36/05 A2995 RMK A01 T03570051  RH  015%=      5-min Rain = 0
KHO1 130105Z 32009KT 36/05 A2995 RMK A01 T03570051  RH  015%=      5-min Rain = 0
KHO1 130106Z 32008KT 36/05 A2995 RMK A01 T03560051  RH  015%=      5-min Rain = 0
KHO1 130107Z 32009KT 36/05 A2995 RMK A01 T03560051  RH  015%=      5-min Rain = 0
KHO1 130108Z 32007KT 36/05 A2995 RMK A01 T03560051  RH  015%=      5-min Rain = 0
KHO1 130109Z 32009KT 36/05 A2995 RMK A01 T03550049  RH  015%=      5-min Rain = 0
KHO1 130110Z 32009KT 36/05 A2995 RMK A01 T03550049  RH  015%=      5-min Rain = 0
KHO1 130111Z 32009KT 36/05 A2995 RMK A01 T03550049  RH  015%=      5-min Rain = 0
KHO1 130112Z 32008KT 35/05 A2995 RMK A01 T03540048  RH  015%=      5-min Rain = 0
KHO1 130113Z 32007KT 35/05 A2996 RMK A01 T03540048  RH  015%=      5-min Rain = 0
KHO1 130114Z 32008KT 35/05 A2996 RMK A01 T03540048  RH  015%=      5-min Rain = 0
KHO1 130115Z 32008KT 35/05 A2996 RMK A01 T03530048  RH  015%=      5-min Rain = 0
KHO1 130116Z 32009KT 35/05 A2996 RMK A01 T03520049  RH  015%=      5-min Rain = 0
KHO1 130117Z 32009KT 35/05 A2996 RMK A01 T03510048  RH  015%=      5-min Rain = 0
KHO1 130118Z 31008KT 35/05 A2996 RMK A01 T03510051  RH  015%=      5-min Rain = 0
KHO1 130119Z 31008KT 35/05 A2996 RMK A01 T03500053  RH  016%=      5-min Rain = 0
KHO1 130120Z 31008KT 35/05 A2996 RMK A01 T03490054  RH  016%=      5-min Rain = 0
KHO1 130121Z 31008KT 35/06 A2996 RMK A01 T03490056  RH  016%=      5-min Rain = 0
KHO1 130122Z 31008KT 35/06 A2996 RMK A01 T03480057  RH  016%=      5-min Rain = 0
KHO1 130123Z 32009KT 35/06 A2996 RMK A01 T03480058  RH  017%=      5-min Rain = 0
KHO1 130124Z 32010KT 35/06 A2996 RMK A01 T03480059  RH  017%=      5-min Rain = 0
KHO1 130125Z 32008KT 35/06 A2996 RMK A01 T03470061  RH  017%=      5-min Rain = 0
KHO1 130126Z 32008KT 35/06 A2996 RMK A01 T03470062  RH  017%=      5-min Rain = 0
KHO1 130127Z 32007KT 35/06 A2996 RMK A01 T03460062  RH  017%=      5-min Rain = 0
KHO1 130128Z 32007KT 35/06 A2996 RMK A01 T03460064  RH  017%=      5-min Rain = 0
KHO1 130129Z 32008KT 35/06 A2996 RMK A01 T03450064  RH  018%=      5-min Rain = 0
KHO1 130130Z 33007KT 34/07 A2996 RMK A01 T03440065  RH  018%=      5-min Rain = 0
KHO1 130131Z 33007KT 34/07 A2996 RMK A01 T03440066  RH  018%=      5-min Rain = 0
KHO1 130132Z 33007KT 34/07 A2996 RMK A01 T03430066  RH  018%=      5-min Rain = 0
KHO1 130133Z 33006KT 34/07 A2996 RMK A01 T03420066  RH  018%=      5-min Rain = 0
KHO1 130134Z 33006KT 34/07 A2996 RMK A01 T03410067  RH  018%=      5-min Rain = 0
KHO1 130135Z 32007KT 34/07 A2996 RMK A01 T03400068  RH  019%=      5-min Rain = 0
KHO1 130136Z 32006KT 34/07 A2996 RMK A01 T03390069  RH  019%=      5-min Rain = 0
KHO1 130137Z 33008KT 34/07 A2997 RMK A01 T03380070  RH  019%=      5-min Rain = 0
KHO1 130138Z 33006KT 34/07 A2997 RMK A01 T03380070  RH  019%=      5-min Rain = 0
KHO1 130139Z 32006KT 34/07 A2997 RMK A01 T03370071  RH  019%=      5-min Rain = 0
KHO1 130140Z 32006KT 34/07 A2997 RMK A01 T03360072  RH  019%=      5-min Rain = 0
KHO1 130141Z 33006KT 34/07 A2997 RMK A01 T03350072  RH  020%=      5-min Rain = 0
KHO1 130142Z 33007KT 33/07 A2997 RMK A01 T03340072  RH  020%=      5-min Rain = 0
KHO1 130143Z 33007KT 33/07 A2997 RMK A01 T03340072  RH  020%=      5-min Rain = 0
KHO1 130144Z 33006KT 33/07 A2997 RMK A01 T03330072  RH  020%=      5-min Rain = 0
KHO1 130145Z 33006KT 33/07 A2997 RMK A01 T03330072  RH  020%=      5-min Rain = 0
KHO1 130146Z 33006KT 33/07 A2997 RMK A01 T03330072  RH  020%=      5-min Rain = 0
KHO1 130147Z 33006KT 33/07 A2997 RMK A01 T03330073  RH  020%=      5-min Rain = 0
KHO1 130148Z 32006KT 33/07 A2997 RMK A01 T03330074  RH  020%=      5-min Rain = 0
KHO1 130149Z 33006KT 33/07 A2997 RMK A01 T03320074  RH  020%=      5-min Rain = 0
KHO1 130150Z 34005KT 33/07 A2997 RMK A01 T03310074  RH  020%=      5-min Rain = 0
KHO1 130151Z 34006KT 33/07 A2997 RMK A01 T03300074  RH  020%=      5-min Rain = 0
KHO1 130152Z 35005KT 33/07 A2997 RMK A01 T03290074  RH  021%=      5-min Rain = 0
KHO1 130153Z 34005KT 33/07 A2997 RMK A01 T03280074  RH  021%=      5-min Rain = 0
KHO1 130154Z 34006KT 33/07 A2997 RMK A01 T03280074  RH  021%=      5-min Rain = 0
KHO1 130155Z 34006KT 33/07 A2997 RMK A01 T03280074  RH  021%=      5-min Rain = 0
KHO1 130156Z 34005KT 33/08 A2997 RMK A01 T03280075  RH  021%=      5-min Rain = 0
KHO1 130157Z 33005KT 33/08 A2997 RMK A01 T03270076  RH  021%=      5-min Rain = 0
KHO1 130158Z 33005KT 33/08 A2997 RMK A01 T03270077  RH  021%=      5-min Rain = 0
KHO1 130159Z 34005KT 33/08 A2997 RMK A01 T03270077  RH  021%=      5-min Rain = 0
KHO1 130200Z 34005KT 33/08 A2997 RMK A01 T03270078  RH  021%=      5-min Rain = 0
KHO1 130201Z 34006KT 33/08 A2997 RMK A01 T03270078  RH  021%=      5-min Rain = 0
KHO1 130202Z 34006KT 33/08 A2997 RMK A01 T03270079  RH  021%=      5-min Rain = 0
KHO1 130203Z 34006KT 33/08 A2997 RMK A01 T03270079  RH  022%=      5-min Rain = 0
KHO1 130204Z 34005KT 33/08 A2997 RMK A01 T03270079  RH  022%=      5-min Rain = 0
KHO1 130205Z 35005KT 33/08 A2997 RMK A01 T03270080  RH  022%=      5-min Rain = 0
KHO1 130206Z 34006KT 33/08 A2997 RMK A01 T03270080  RH  022%=      5-min Rain = 0
KHO1 130207Z 34006KT 33/08 A2997 RMK A01 T03270080  RH  022%=      5-min Rain = 0
KHO1 130208Z 35005KT 33/08 A2997 RMK A01 T03270080  RH  022%=      5-min Rain = 0
KHO1 130209Z 35005KT 33/08 A2997 RMK A01 T03270080  RH  022%=      5-min Rain = 0
KHO1 130210Z 35005KT 33/08 A2997 RMK A01 T03260081  RH  022%=      5-min Rain = 0
KHO1 130211Z 36005KT 33/08 A2997 RMK A01 T03250081  RH  022%=      5-min Rain = 0
KHO1 130212Z 35005KT 33/08 A2997 RMK A01 T03250081  RH  022%=      5-min Rain = 0
KHO1 130213Z 36005KT 32/08 A2998 RMK A01 T03240082  RH  022%=      5-min Rain = 0
KHO1 130214Z 36005KT 32/08 A2998 RMK A01 T03230082  RH  022%=      5-min Rain = 0
KHO1 130215Z 36005KT 32/08 A2998 RMK A01 T03230082  RH  023%=      5-min Rain = 0
KHO1 130216Z 00005KT 32/08 A2998 RMK A01 T03220083  RH  023%=      5-min Rain = 0
KHO1 130217Z 00005KT 32/08 A2998 RMK A01 T03210083  RH  023%=      5-min Rain = 0
KHO1 130218Z 00005KT 32/08 A2998 RMK A01 T03200083  RH  023%=      5-min Rain = 0
KHO1 130219Z 00005KT 32/08 A2998 RMK A01 T03200084  RH  023%=      5-min Rain = 0
KHO1 130220Z 00005KT 32/08 A2998 RMK A01 T03190084  RH  023%=      5-min Rain = 0
KHO1 130221Z 36005KT 32/08 A2998 RMK A01 T03190084  RH  023%=      5-min Rain = 0
KHO1 130222Z 00004KT 32/08 A2998 RMK A01 T03180084  RH  023%=      5-min Rain = 0
KHO1 130223Z 00005KT 32/09 A2998 RMK A01 T03170085  RH  024%=      5-min Rain = 0
KHO1 130224Z 01004KT 32/09 A2998 RMK A01 T03170085  RH  024%=      5-min Rain = 0
KHO1 130225Z 01004KT 32/09 A2998 RMK A01 T03160085  RH  024%=      5-min Rain = 0
KHO1 130226Z 00006KT 32/09 A2998 RMK A01 T03150086  RH  024%=      5-min Rain = 0
KHO1 130227Z 01006KT 32/09 A2998 RMK A01 T03150086  RH  024%=      5-min Rain = 0
KHO1 130228Z 00006KT 32/09 A2998 RMK A01 T03150086  RH  024%=      5-min Rain = 0
KHO1 130229Z 00006KT 32/09 A2998 RMK A01 T03150087  RH  024%=      5-min Rain = 0
KHO1 130230Z 00007KT 32/09 A2998 RMK A01 T03150087  RH  024%=      5-min Rain = 0
KHO1 130231Z 00006KT 32/09 A2998 RMK A01 T03160087  RH  024%=      5-min Rain = 0
KHO1 130232Z 01006KT 32/09 A2998 RMK A01 T03160087  RH  024%=      5-min Rain = 0
KHO1 130233Z 00005KT 32/09 A2998 RMK A01 T03160087  RH  024%=      5-min Rain = 0
KHO1 130234Z 01005KT 32/09 A2998 RMK A01 T03150087  RH  024%=      5-min Rain = 0
KHO1 130235Z 00005KT 32/09 A2999 RMK A01 T03150086  RH  024%=      5-min Rain = 0
KHO1 130236Z 00005KT 31/09 A2999 RMK A01 T03140086  RH  024%=      5-min Rain = 0
KHO1 130237Z 00004KT 31/09 A2999 RMK A01 T03140087  RH  024%=      5-min Rain = 0
KHO1 130238Z 00004KT 31/09 A2999 RMK A01 T03130087  RH  024%=      5-min Rain = 0
KHO1 130239Z 00004KT 31/09 A2999 RMK A01 T03130087  RH  025%=      5-min Rain = 0
KHO1 130240Z 00004KT 31/09 A2999 RMK A01 T03120086  RH  025%=      5-min Rain = 0
KHO1 130241Z 00004KT 31/09 A2999 RMK A01 T03120087  RH  025%=      5-min Rain = 0
KHO1 130242Z 00003KT 31/09 A2999 RMK A01 T03110087  RH  025%=      5-min Rain = 0
KHO1 130243Z 00004KT 31/09 A2999 RMK A01 T03110087  RH  025%=      5-min Rain = 0
KHO1 130244Z 00003KT 31/09 A2999 RMK A01 T03100087  RH  025%=      5-min Rain = 0
KHO1 130245Z 00004KT 31/09 A2999 RMK A01 T03100088  RH  025%=      5-min Rain = 0
KHO1 130246Z 00004KT 31/09 A2999 RMK A01 T03100087  RH  025%=      5-min Rain = 0
KHO1 130247Z 00004KT 31/09 A2999 RMK A01 T03090087  RH  025%=      5-min Rain = 0
KHO1 130248Z 01004KT 31/09 A2999 RMK A01 T03090088  RH  025%=      5-min Rain = 0
KHO1 130249Z 01004KT 31/09 A2999 RMK A01 T03090088  RH  025%=      5-min Rain = 0
KHO1 130250Z 02003KT 31/09 A2999 RMK A01 T03090087  RH  025%=      5-min Rain = 0
KHO1 130251Z 02003KT 31/09 A2999 RMK A01 T03090087  RH  025%=      5-min Rain = 0
KHO1 130252Z 01003KT 31/09 A2999 RMK A01 T03090088  RH  025%=      5-min Rain = 0
KHO1 130253Z 01003KT 31/09 A2999 RMK A01 T03090088  RH  025%=      5-min Rain = 0
KHO1 130254Z 01003KT 31/09 A2999 RMK A01 T03080088  RH  025%=      5-min Rain = 0
KHO1 130255Z 02003KT 31/09 A2999 RMK A01 T03080088  RH  025%=      5-min Rain = 0
KHO1 130256Z 01003KT 31/09 A2999 RMK A01 T03080088  RH  026%=      5-min Rain = 0
KHO1 130257Z 01003KT 31/09 A2999 RMK A01 T03080088  RH  026%=      5-min Rain = 0
KHO1 130258Z 02004KT 31/09 A2999 RMK A01 T03080089  RH  026%=      5-min Rain = 0
KHO1 130259Z 02003KT 31/09 A2999 RMK A01 T03070088  RH  026%=      5-min Rain = 0
KHO1 130300Z 02003KT 31/09 A2999 RMK A01 T03060089  RH  026%=      5-min Rain = 0
KHO1 130301Z 02003KT 31/09 A2999 RMK A01 T03060089  RH  026%=      5-min Rain = 0
KHO1 130302Z 02003KT 31/09 A2999 RMK A01 T03050089  RH  026%=      5-min Rain = 0
KHO1 130303Z 02003KT 30/09 A2999 RMK A01 T03040089  RH  026%=      5-min Rain = 0
KHO1 130304Z 02003KT 30/09 A2999 RMK A01 T03030090  RH  026%=      5-min Rain = 0
KHO1 130305Z 02003KT 30/09 A2999 RMK A01 T03020090  RH  027%=      5-min Rain = 0
KHO1 130306Z 02003KT 30/09 A2999 RMK A01 T03020090  RH  027%=      5-min Rain = 0
KHO1 130307Z 02003KT 30/09 A2999 RMK A01 T03020091  RH  027%=      5-min Rain = 0
KHO1 130308Z 02003KT 30/09 A2999 RMK A01 T03030091  RH  027%=      5-min Rain = 0
KHO1 130309Z 02003KT 30/09 A2999 RMK A01 T03020091  RH  027%=      5-min Rain = 0
KHO1 130310Z 02003KT 30/09 A2999 RMK A01 T03010091  RH  027%=      5-min Rain = 0
KHO1 130311Z 02003KT 30/09 A2999 RMK A01 T03000091  RH  027%=      5-min Rain = 0
KHO1 130312Z 02003KT 30/09 A2999 RMK A01 T03000091  RH  027%=      5-min Rain = 0
KHO1 130313Z 02003KT 30/09 A2999 RMK A01 T03000091  RH  027%=      5-min Rain = 0
KHO1 130314Z 02004KT 30/09 A2999 RMK A01 T02990091  RH  027%=      5-min Rain = 0
KHO1 130315Z 02004KT 30/09 A2999 RMK A01 T02970091  RH  028%=      5-min Rain = 0
KHO1 130316Z 02004KT 30/09 A2999 RMK A01 T02960090  RH  028%=      5-min Rain = 0
KHO1 130317Z 02004KT 29/09 A30 RMK A01 T02940090  RH  028%=      5-min Rain = 0
KHO1 130318Z 01004KT 29/09 A30 RMK A01 T02930091  RH  028%=      5-min Rain = 0
KHO1 130319Z 02004KT 29/09 A30 RMK A01 T02920091  RH  028%=      5-min Rain = 0
KHO1 130320Z 01004KT 29/09 A30 RMK A01 T02920091  RH  029%=      5-min Rain = 0
KHO1 130321Z 01003KT 29/09 A30 RMK A01 T02920091  RH  029%=      5-min Rain = 0
KHO1 130322Z 01003KT 29/09 A30 RMK A01 T02920091  RH  029%=      5-min Rain = 0
KHO1 130323Z 01003KT 29/09 A30 RMK A01 T02920091  RH  028%=      5-min Rain = 0
KHO1 130324Z 02003KT 29/09 A30 RMK A01 T02930091  RH  028%=      5-min Rain = 0
KHO1 130325Z 02003KT 29/09 A30 RMK A01 T02930091  RH  028%=      5-min Rain = 0
KHO1 130326Z 01003KT 29/09 A30 RMK A01 T02930091  RH  028%=      5-min Rain = 0
KHO1 130327Z 01003KT 29/09 A30 RMK A01 T02920090  RH  028%=      5-min Rain = 0
KHO1 130328Z 01003KT 29/09 A30 RMK A01 T02910091  RH  029%=      5-min Rain = 0
KHO1 130329Z 01003KT 29/09 A30 RMK A01 T02900091  RH  029%=      5-min Rain = 0
KHO1 130330Z 01003KT 29/09 A30 RMK A01 T02900091  RH  029%=      5-min Rain = 0
KHO1 130331Z 01003KT 29/09 A30 RMK A01 T02890091  RH  029%=      5-min Rain = 0
KHO1 130332Z 01003KT 29/09 A30 RMK A01 T02890091  RH  029%=      5-min Rain = 0
KHO1 130333Z 01003KT 29/09 A30 RMK A01 T02890092  RH  029%=      5-min Rain = 0
KHO1 130334Z 01003KT 29/09 A30 RMK A01 T02900091  RH  029%=      5-min Rain = 0
KHO1 130335Z 01003KT 29/09 A30 RMK A01 T02890091  RH  029%=      5-min Rain = 0
KHO1 130336Z 01004KT 29/09 A30 RMK A01 T02890091  RH  029%=      5-min Rain = 0
KHO1 130337Z 01004KT 29/09 A30 RMK A01 T02890091  RH  029%=      5-min Rain = 0
KHO1 130338Z 01003KT 29/09 A30 RMK A01 T02890091  RH  029%=      5-min Rain = 0
KHO1 130339Z 01003KT 29/09 A30 RMK A01 T02880091  RH  029%=      5-min Rain = 0
KHO1 130340Z 01003KT 29/09 A30 RMK A01 T02880091  RH  029%=      5-min Rain = 0
KHO1 130341Z 01003KT 29/09 A30 RMK A01 T02880092  RH  029%=      5-min Rain = 0
KHO1 130342Z 01003KT 29/09 A30 RMK A01 T02880092  RH  029%=      5-min Rain = 0
KHO1 130343Z 01003KT 29/09 A30 RMK A01 T02880092  RH  029%=      5-min Rain = 0
KHO1 130344Z 01002KT 29/09 A30 RMK A01 T02880092  RH  029%=      5-min Rain = 0
KHO1 130345Z 01003KT 29/09 A30 RMK A01 T02870092  RH  029%=      5-min Rain = 0
KHO1 130346Z 00003KT 29/09 A30 RMK A01 T02870092  RH  029%=      5-min Rain = 0
KHO1 130347Z 00003KT 29/09 A30 RMK A01 T02870091  RH  029%=      5-min Rain = 0
KHO1 130348Z 00003KT 29/09 A30 RMK A01 T02870092  RH  030%=      5-min Rain = 0
KHO1 130349Z 01003KT 29/09 A30 RMK A01 T02870092  RH  029%=      5-min Rain = 0
KHO1 130350Z 01003KT 29/09 A30 RMK A01 T02870092  RH  029%=      5-min Rain = 0
KHO1 130351Z 01003KT 29/09 A30 RMK A01 T02860092  RH  030%=      5-min Rain = 0
KHO1 130352Z 01003KT 29/09 A30 RMK A01 T02860092  RH  030%=      5-min Rain = 0
KHO1 130353Z 01003KT 29/09 A30 RMK A01 T02860093  RH  030%=      5-min Rain = 0
KHO1 130354Z 01003KT 29/09 A30 RMK A01 T02850094  RH  030%=      5-min Rain = 0
KHO1 130355Z 01003KT 29/09 A30 RMK A01 T02850094  RH  030%=      5-min Rain = 0
KHO1 130356Z 01003KT 29/09 A30 RMK A01 T02850094  RH  030%=      5-min Rain = 0
KHO1 130357Z 01003KT 29/09 A30 RMK A01 T02850094  RH  030%=      5-min Rain = 0
KHO1 130358Z 01004KT 29/09 A30 RMK A01 T02850094  RH  030%=      5-min Rain = 0
KHO1 130359Z 02003KT 29/09 A30 RMK A01 T02850093  RH  030%=      5-min Rain = 0
KHO1 130400Z 02003KT 29/09 A30 RMK A01 T02850093  RH  030%=      5-min Rain = 0
KHO1 130401Z 02003KT 29/09 A30 RMK A01 T02860093  RH  030%=      5-min Rain = 0
KHO1 130402Z 02003KT 29/09 A30 RMK A01 T02860093  RH  030%=      5-min Rain = 0
KHO1 130403Z 02003KT 29/09 A30 RMK A01 T02860093  RH  030%=      5-min Rain = 0
KHO1 130404Z 02003KT 29/09 A30 RMK A01 T02860094  RH  030%=      5-min Rain = 0
KHO1 130405Z 02003KT 29/09 A30 RMK A01 T02870094  RH  030%=      5-min Rain = 0
KHO1 130406Z 02003KT 29/09 A30 RMK A01 T02870094  RH  030%=      5-min Rain = 0
KHO1 130407Z 02003KT 29/09 A30 RMK A01 T02880094  RH  030%=      5-min Rain = 0
KHO1 130408Z 02003KT 29/09 A30 RMK A01 T02880094  RH  030%=      5-min Rain = 0
KHO1 130409Z 02002KT 29/10 A30 RMK A01 T02880095  RH  030%=      5-min Rain = 0
KHO1 130410Z 02003KT 29/09 A30 RMK A01 T02880094  RH  030%=      5-min Rain = 0
KHO1 130411Z 02003KT 29/09 A30 RMK A01 T02890094  RH  030%=      5-min Rain = 0
KHO1 130412Z 02003KT 29/09 A30 RMK A01 T02890094  RH  030%=      5-min Rain = 0
KHO1 130413Z 02003KT 29/09 A30 RMK A01 T02890094  RH  030%=      5-min Rain = 0
KHO1 130414Z 02003KT 29/10 A30 RMK A01 T02890095  RH  030%=      5-min Rain = 0
KHO1 130415Z 02003KT 29/09 A30 RMK A01 T02890094  RH  030%=      5-min Rain = 0
KHO1 130416Z 01003KT 29/09 A30 RMK A01 T02890094  RH  030%=      5-min Rain = 0
KHO1 130417Z 01002KT 29/09 A30 RMK A01 T02880094  RH  030%=      5-min Rain = 0
KHO1 130418Z 01003KT 29/10 A3001 RMK A01 T02870095  RH  030%=      5-min Rain = 0
KHO1 130419Z 01003KT 29/10 A3001 RMK A01 T02860095  RH  030%=      5-min Rain = 0
KHO1 130420Z 01003KT 29/10 A3001 RMK A01 T02860095  RH  030%=      5-min Rain = 0
KHO1 130421Z 01003KT 29/10 A3001 RMK A01 T02850095  RH  030%=      5-min Rain = 0
KHO1 130422Z 01003KT 29/10 A3001 RMK A01 T02850095  RH  030%=      5-min Rain = 0
KHO1 130423Z 01003KT 28/10 A3001 RMK A01 T02840095  RH  031%=      5-min Rain = 0
KHO1 130424Z 01003KT 28/10 A3001 RMK A01 T02840095  RH  031%=      5-min Rain = 0
KHO1 130425Z 00003KT 28/09 A3001 RMK A01 T02830094  RH  031%=      5-min Rain = 0
KHO1 130426Z 00003KT 28/09 A3001 RMK A01 T02820094  RH  031%=      5-min Rain = 0
KHO1 130427Z 00003KT 28/09 A3001 RMK A01 T02810093  RH  031%=      5-min Rain = 0
KHO1 130428Z 01003KT 28/09 A3001 RMK A01 T02800094  RH  031%=      5-min Rain = 0
KHO1 130429Z 01002KT 28/09 A3001 RMK A01 T02800094  RH  031%=      5-min Rain = 0
KHO1 130430Z 01003KT 28/10 A3001 RMK A01 T02790095  RH  032%=      5-min Rain = 0
KHO1 130431Z 01003KT 28/10 A3001 RMK A01 T02780095  RH  032%=      5-min Rain = 0
KHO1 130432Z 01003KT 28/10 A3001 RMK A01 T02770095  RH  032%=      5-min Rain = 0
KHO1 130433Z 00003KT 28/10 A3001 RMK A01 T02770096  RH  032%=      5-min Rain = 0
KHO1 130434Z 00003KT 28/10 A3001 RMK A01 T02760095  RH  032%=      5-min Rain = 0
KHO1 130435Z 00003KT 28/10 A3001 RMK A01 T02760096  RH  032%=      5-min Rain = 0
KHO1 130436Z 00004KT 28/10 A3001 RMK A01 T02750095  RH  032%=      5-min Rain = 0
KHO1 130437Z 00004KT 28/10 A3001 RMK A01 T02750095  RH  032%=      5-min Rain = 0
KHO1 130438Z 00004KT 27/10 A3001 RMK A01 T02740096  RH  033%=      5-min Rain = 0
KHO1 130439Z 00004KT 27/10 A3001 RMK A01 T02730097  RH  033%=      5-min Rain = 0
KHO1 130440Z 00004KT 27/10 A3001 RMK A01 T02720097  RH  033%=      5-min Rain = 0
KHO1 130441Z 00005KT 27/10 A3001 RMK A01 T02730097  RH  033%=      5-min Rain = 0
KHO1 130442Z 00004KT 27/10 A3001 RMK A01 T02720097  RH  033%=      5-min Rain = 0
KHO1 130443Z 36004KT 27/10 A3001 RMK A01 T02730098  RH  033%=      5-min Rain = 0
KHO1 130444Z 36004KT 27/10 A3001 RMK A01 T02730098  RH  033%=      5-min Rain = 0
KHO1 130445Z 36004KT 27/10 A3001 RMK A01 T02730098  RH  033%=      5-min Rain = 0
KHO1 130446Z 36004KT 27/10 A3001 RMK A01 T02730099  RH  034%=      5-min Rain = 0
KHO1 130447Z 36003KT 27/10 A3001 RMK A01 T02730099  RH  034%=      5-min Rain = 0
KHO1 130448Z 00004KT 27/10 A3001 RMK A01 T02730098  RH  033%=      5-min Rain = 0
KHO1 130449Z 00004KT 27/10 A3001 RMK A01 T02730098  RH  033%=      5-min Rain = 0
KHO1 130450Z 36004KT 27/10 A3001 RMK A01 T02720098  RH  034%=      5-min Rain = 0
KHO1 130451Z 00005KT 27/10 A3001 RMK A01 T02720099  RH  034%=      5-min Rain = 0
KHO1 130452Z 00004KT 27/10 A3001 RMK A01 T02720099  RH  034%=      5-min Rain = 0
KHO1 130453Z 36004KT 27/10 A3001 RMK A01 T02720099  RH  034%=      5-min Rain = 0
KHO1 130454Z 36004KT 27/10 A3001 RMK A01 T02720100  RH  034%=      5-min Rain = 0
KHO1 130455Z 36004KT 27/10 A3001 RMK A01 T02720100  RH  034%=      5-min Rain = 0
KHO1 130456Z 36004KT 27/10 A3001 RMK A01 T02720100  RH  034%=      5-min Rain = 0
KHO1 130457Z 36004KT 27/10 A3001 RMK A01 T02720099  RH  034%=      5-min Rain = 0
KHO1 130458Z 35004KT 27/10 A3001 RMK A01 T02710099  RH  034%=      5-min Rain = 0
KHO1 130459Z 35004KT 27/10 A3001 RMK A01 T02710099  RH  034%=      5-min Rain = 0

Page generated in 0.2927 seconds.